LEU5MP SBFN-SWPI
Flight info
| Callsign | LEU5MP |
|---|---|
| Flight time | N/A |
| Altitude | 30000 |
| Route | TOGAB UZ18 NIGBO UZ12 IVTIM UZ24 OPLIP UZ81 XOLOK |
| Aircraft | PC12/L-SDFGRWY/S |
Departure
| Time | 2026-04-27 17:02 |
|---|---|
| Airport | Fernando de Noronha Airport (SBFN) |
Arrival
| Time | N/A |
|---|---|
| Airport | Parintins Airport (SWPI) |
| Time | Latitude | Longitude | Altitude | Speed | Heading |
|---|---|---|---|---|---|
| 2026-04-27 16:37 | -3.85604 | -32.42780 | 182 ft | 0 kts | 274° |
| 2026-04-27 16:46 | -3.85604 | -32.42779 | 182 ft | 0 kts | 274° |
| 2026-04-27 16:48 | -3.85605 | -32.42779 | 182 ft | 0 kts | 274° |
| 2026-04-27 16:56 | -3.85596 | -32.42800 | 182 ft | 6 kts | 6° |
| 2026-04-27 16:57 | -3.85537 | -32.42775 | 182 ft | 12 kts | 18° |
| 2026-04-27 16:57 | -3.85487 | -32.42755 | 180 ft | 0 kts | 19° |
| 2026-04-27 16:57 | -3.85477 | -32.42752 | 180 ft | 6 kts | 18° |
| 2026-04-27 16:58 | -3.85419 | -32.42714 | 180 ft | 16 kts | 71° |
| 2026-04-27 16:58 | -3.85425 | -32.42583 | 183 ft | 21 kts | 95° |
| 2026-04-27 16:58 | -3.85437 | -32.42406 | 185 ft | 28 kts | 94° |
| 2026-04-27 16:58 | -3.85449 | -32.42235 | 190 ft | 24 kts | 93° |
| 2026-04-27 16:59 | -3.85462 | -32.42058 | 199 ft | 27 kts | 94° |
| 2026-04-27 16:59 | -3.85476 | -32.41860 | 200 ft | 29 kts | 94° |
| 2026-04-27 16:59 | -3.85491 | -32.41684 | 198 ft | 28 kts | 95° |
| 2026-04-27 16:59 | -3.85490 | -32.41546 | 191 ft | 14 kts | 63° |
| 2026-04-27 17:00 | -3.85506 | -32.41509 | 194 ft | 5 kts | 274° |
| 2026-04-27 17:00 | -3.85505 | -32.41512 | 193 ft | 0 kts | 274° |
| 2026-04-27 17:01 | -3.85500 | -32.41569 | 192 ft | 31 kts | 276° |
| 2026-04-27 17:01 | -3.85470 | -32.41976 | 205 ft | 86 kts | 275° |
| 2026-04-27 17:01 | -3.85413 | -32.42700 | 266 ft | 116 kts | 275° |
| 2026-04-27 17:02 | -3.85383 | -32.43552 | 642 ft | 126 kts | 271° |
| 2026-04-27 17:02 | -3.85419 | -32.44436 | 1123 ft | 127 kts | 268° |
| 2026-04-27 17:02 | -3.85467 | -32.45335 | 1625 ft | 129 kts | 271° |
| 2026-04-27 17:02 | -3.85327 | -32.46262 | 1934 ft | 147 kts | 296° |
| 2026-04-27 17:03 | -3.84951 | -32.47223 | 2409 ft | 150 kts | 282° |
| 2026-04-27 17:03 | -3.84825 | -32.48265 | 3054 ft | 150 kts | 275° |
| 2026-04-27 17:03 | -3.84718 | -32.49313 | 3665 ft | 152 kts | 276° |
| 2026-04-27 17:03 | -3.84608 | -32.50368 | 4295 ft | 153 kts | 275° |
| 2026-04-27 17:04 | -3.84496 | -32.51430 | 4910 ft | 155 kts | 275° |
| 2026-04-27 17:04 | -3.84381 | -32.52510 | 5505 ft | 156 kts | 275° |
| 2026-04-27 17:04 | -3.84392 | -32.53597 | 6122 ft | 157 kts | 264° |
| 2026-04-27 17:04 | -3.84456 | -32.54694 | 6716 ft | 158 kts | 266° |
| 2026-04-27 17:05 | -3.84490 | -32.55800 | 7286 ft | 160 kts | 267° |
| 2026-04-27 17:05 | -3.84517 | -32.56908 | 7856 ft | 162 kts | 267° |
| 2026-04-27 17:05 | -3.84544 | -32.58044 | 8429 ft | 164 kts | 266° |
| 2026-04-27 17:05 | -3.84571 | -32.59191 | 9003 ft | 166 kts | 266° |
| 2026-04-27 17:06 | -3.84598 | -32.60356 | 9577 ft | 168 kts | 266° |
| 2026-04-27 17:06 | -3.84626 | -32.61534 | 10117 ft | 170 kts | 266° |
| 2026-04-27 17:06 | -3.84654 | -32.62728 | 10639 ft | 172 kts | 266° |
| 2026-04-27 17:06 | -3.84682 | -32.63932 | 11162 ft | 174 kts | 266° |
| 2026-04-27 17:07 | -3.84710 | -32.65151 | 11683 ft | 176 kts | 266° |
| 2026-04-27 17:07 | -3.84739 | -32.66367 | 12203 ft | 178 kts | 266° |
| 2026-04-27 17:07 | -3.84768 | -32.67617 | 12741 ft | 180 kts | 266° |
| 2026-04-27 17:07 | -3.84798 | -32.68883 | 13269 ft | 183 kts | 266° |
| 2026-04-27 17:08 | -3.84828 | -32.70161 | 13780 ft | 185 kts | 266° |
| 2026-04-27 17:08 | -3.84858 | -32.71454 | 14238 ft | 186 kts | 266° |
| 2026-04-27 17:08 | -3.84889 | -32.72760 | 14693 ft | 188 kts | 266° |
| 2026-04-27 17:08 | -3.84919 | -32.74080 | 15146 ft | 190 kts | 266° |
| 2026-04-27 17:09 | -3.84950 | -32.75414 | 15582 ft | 193 kts | 266° |
| 2026-04-27 17:09 | -3.84982 | -32.76768 | 16028 ft | 195 kts | 266° |
| 2026-04-27 17:09 | -3.85014 | -32.78133 | 16485 ft | 197 kts | 266° |
| 2026-04-27 17:09 | -3.85046 | -32.79515 | 16939 ft | 199 kts | 266° |
| 2026-04-27 17:10 | -3.85078 | -32.80886 | 17393 ft | 201 kts | 266° |
| 2026-04-27 17:10 | -3.85110 | -32.82289 | 17855 ft | 202 kts | 266° |
| 2026-04-27 17:10 | -3.85143 | -32.83706 | 18295 ft | 204 kts | 266° |
| 2026-04-27 17:10 | -3.85177 | -32.85132 | 18680 ft | 206 kts | 266° |
| 2026-04-27 17:11 | -3.85210 | -32.86572 | 19062 ft | 208 kts | 266° |
| 2026-04-27 17:11 | -3.85278 | -32.89492 | 19831 ft | 212 kts | 266° |
| 2026-04-27 17:11 | -3.85312 | -32.90974 | 20209 ft | 214 kts | 266° |
| 2026-04-27 17:12 | -3.85381 | -32.93983 | 20982 ft | 218 kts | 266° |
| 2026-04-27 17:12 | -3.85417 | -32.95509 | 21364 ft | 220 kts | 266° |
| 2026-04-27 17:12 | -3.85452 | -32.97044 | 21746 ft | 221 kts | 266° |
| 2026-04-27 17:13 | -3.85488 | -32.98593 | 22128 ft | 223 kts | 266° |
| 2026-04-27 17:13 | -3.85524 | -33.00154 | 22509 ft | 225 kts | 266° |
| 2026-04-27 17:13 | -3.85560 | -33.01730 | 22890 ft | 227 kts | 266° |
| 2026-04-27 17:13 | -3.85597 | -33.03298 | 23275 ft | 228 kts | 266° |
| 2026-04-27 17:14 | -3.85633 | -33.04887 | 23648 ft | 229 kts | 266° |
| 2026-04-27 17:14 | -3.85670 | -33.06480 | 23996 ft | 228 kts | 266° |
| 2026-04-27 17:14 | -3.85706 | -33.08069 | 24345 ft | 228 kts | 266° |
| 2026-04-27 17:14 | -3.85743 | -33.09654 | 24702 ft | 228 kts | 266° |
| 2026-04-27 17:15 | -3.85780 | -33.11243 | 25084 ft | 227 kts | 266° |
| 2026-04-27 17:15 | -3.85816 | -33.12827 | 25485 ft | 227 kts | 266° |
| 2026-04-27 17:15 | -3.85852 | -33.14406 | 25907 ft | 226 kts | 266° |
| 2026-04-27 17:15 | -3.85889 | -33.15980 | 26354 ft | 226 kts | 266° |
| 2026-04-27 17:16 | -3.85924 | -33.17530 | 26818 ft | 226 kts | 266° |
| 2026-04-27 17:16 | -3.85961 | -33.19103 | 27331 ft | 225 kts | 266° |
| 2026-04-27 17:16 | -3.85997 | -33.20665 | 27859 ft | 224 kts | 266° |
| 2026-04-27 17:16 | -3.86032 | -33.22221 | 28389 ft | 223 kts | 266° |
| 2026-04-27 17:17 | -3.86066 | -33.23774 | 28862 ft | 222 kts | 266° |
| 2026-04-27 17:17 | -3.86101 | -33.25322 | 29245 ft | 222 kts | 267° |
| 2026-04-27 17:17 | -3.86136 | -33.26867 | 29548 ft | 222 kts | 267° |
| 2026-04-27 17:18 | -3.86205 | -33.29956 | 29889 ft | 222 kts | 267° |
| 2026-04-27 17:18 | -3.86240 | -33.31507 | 29910 ft | 225 kts | 267° |
| 2026-04-27 17:18 | -3.86276 | -33.33085 | 29914 ft | 228 kts | 267° |
| 2026-04-27 17:18 | -3.86312 | -33.34678 | 29922 ft | 230 kts | 267° |
| 2026-04-27 17:19 | -3.86347 | -33.36268 | 29925 ft | 229 kts | 267° |
| 2026-04-27 17:19 | -3.86380 | -33.37837 | 29905 ft | 222 kts | 267° |
| 2026-04-27 17:19 | -3.86417 | -33.39362 | 29910 ft | 218 kts | 267° |
| 2026-04-27 17:19 | -3.86454 | -33.40884 | 29915 ft | 220 kts | 267° |
| 2026-04-27 17:20 | -3.86488 | -33.42426 | 29920 ft | 223 kts | 267° |
| 2026-04-27 17:20 | -3.86522 | -33.43982 | 29927 ft | 224 kts | 266° |
| 2026-04-27 17:20 | -3.86557 | -33.45547 | 29926 ft | 225 kts | 266° |
| 2026-04-27 17:20 | -3.86593 | -33.47114 | 29925 ft | 226 kts | 266° |
| 2026-04-27 17:21 | -3.86629 | -33.48689 | 29927 ft | 227 kts | 267° |
| 2026-04-27 17:21 | -3.86663 | -33.50267 | 29929 ft | 225 kts | 267° |
| 2026-04-27 17:21 | -3.86698 | -33.51830 | 29921 ft | 223 kts | 266° |
| 2026-04-27 17:21 | -3.86733 | -33.53378 | 29913 ft | 222 kts | 266° |
| 2026-04-27 17:22 | -3.86768 | -33.54919 | 29911 ft | 221 kts | 266° |
| 2026-04-27 17:22 | -3.86802 | -33.56429 | 29912 ft | 220 kts | 266° |
| 2026-04-27 17:22 | -3.86838 | -33.57975 | 29919 ft | 223 kts | 266° |
| 2026-04-27 17:22 | -3.86872 | -33.59539 | 29931 ft | 226 kts | 267° |
| 2026-04-27 17:23 | -3.86907 | -33.61115 | 29933 ft | 227 kts | 267° |
| 2026-04-27 17:23 | -3.86943 | -33.62709 | 29935 ft | 228 kts | 267° |
| 2026-04-27 17:23 | -3.86978 | -33.64308 | 29933 ft | 230 kts | 267° |
| 2026-04-27 17:23 | -3.87014 | -33.65889 | 29931 ft | 230 kts | 267° |
| 2026-04-27 17:24 | -3.87049 | -33.67494 | 29928 ft | 231 kts | 267° |
| 2026-04-27 17:24 | -3.87085 | -33.69109 | 29938 ft | 232 kts | 267° |
| 2026-04-27 17:24 | -3.87121 | -33.70727 | 29926 ft | 233 kts | 266° |
| 2026-04-27 17:24 | -3.87157 | -33.72352 | 29928 ft | 234 kts | 266° |
| 2026-04-27 17:25 | -3.87194 | -33.73983 | 29927 ft | 234 kts | 266° |
| 2026-04-27 17:25 | -3.87229 | -33.75618 | 29928 ft | 234 kts | 266° |
| 2026-04-27 17:25 | -3.87266 | -33.77252 | 29927 ft | 234 kts | 266° |
| 2026-04-27 17:25 | -3.87302 | -33.78863 | 29927 ft | 234 kts | 266° |
| 2026-04-27 17:26 | -3.87338 | -33.80493 | 29934 ft | 234 kts | 266° |
| 2026-04-27 17:26 | -3.87374 | -33.82126 | 29934 ft | 234 kts | 266° |
| 2026-04-27 17:26 | -3.87410 | -33.83760 | 29934 ft | 234 kts | 266° |
| 2026-04-27 17:26 | -3.87446 | -33.85398 | 29934 ft | 234 kts | 266° |
| 2026-04-27 17:27 | -3.87482 | -33.87032 | 29931 ft | 234 kts | 266° |
| 2026-04-27 17:27 | -3.87518 | -33.88663 | 29931 ft | 234 kts | 266° |
| 2026-04-27 17:27 | -3.87554 | -33.90296 | 29931 ft | 235 kts | 266° |
| 2026-04-27 17:27 | -3.87590 | -33.91930 | 29931 ft | 235 kts | 266° |
| 2026-04-27 17:28 | -3.87626 | -33.93565 | 29934 ft | 235 kts | 266° |
| 2026-04-27 17:28 | -3.87662 | -33.95198 | 29934 ft | 235 kts | 266° |
| 2026-04-27 17:28 | -3.87733 | -33.98448 | 29934 ft | 235 kts | 266° |
| 2026-04-27 17:29 | -3.87769 | -34.00083 | 29931 ft | 235 kts | 266° |
| 2026-04-27 17:29 | -3.87805 | -34.01721 | 29931 ft | 235 kts | 266° |
| 2026-04-27 17:29 | -3.87841 | -34.03361 | 29931 ft | 235 kts | 266° |
| 2026-04-27 17:29 | -3.87877 | -34.04997 | 29931 ft | 235 kts | 266° |
| 2026-04-27 17:30 | -3.87912 | -34.06634 | 29934 ft | 235 kts | 266° |
| 2026-04-27 17:30 | -3.87984 | -34.09908 | 29934 ft | 235 kts | 266° |
| 2026-04-27 17:30 | -3.88007 | -34.10992 | 29934 ft | 235 kts | 266° |
| 2026-04-27 17:31 | -3.88043 | -34.12629 | 29934 ft | 235 kts | 266° |
| 2026-04-27 17:31 | -3.88078 | -34.14269 | 29934 ft | 235 kts | 266° |
| 2026-04-27 17:31 | -3.88126 | -34.16438 | 29934 ft | 235 kts | 266° |
| 2026-04-27 17:31 | -3.88150 | -34.17546 | 29934 ft | 235 kts | 266° |
| 2026-04-27 17:32 | -3.88185 | -34.19186 | 29934 ft | 235 kts | 266° |
| 2026-04-27 17:32 | -3.88256 | -34.22439 | 29934 ft | 235 kts | 266° |
| 2026-04-27 17:32 | -3.88291 | -34.24079 | 29931 ft | 236 kts | 266° |
| 2026-04-27 17:33 | -3.88327 | -34.25719 | 29930 ft | 236 kts | 266° |
| 2026-04-27 17:33 | -3.88363 | -34.27381 | 29929 ft | 236 kts | 266° |
| 2026-04-27 17:33 | -3.88398 | -34.29002 | 29929 ft | 236 kts | 266° |
| 2026-04-27 17:33 | -3.88433 | -34.30643 | 29929 ft | 236 kts | 266° |
| 2026-04-27 17:34 | -3.88468 | -34.32283 | 29928 ft | 236 kts | 266° |
| 2026-04-27 17:34 | -3.88504 | -34.33927 | 29928 ft | 236 kts | 266° |
| 2026-04-27 17:34 | -3.88539 | -34.35569 | 29928 ft | 236 kts | 266° |
| 2026-04-27 17:34 | -3.88574 | -34.37213 | 29929 ft | 236 kts | 266° |
| 2026-04-27 17:35 | -3.88609 | -34.38858 | 29929 ft | 236 kts | 266° |
| 2026-04-27 17:35 | -3.88645 | -34.40505 | 29929 ft | 236 kts | 266° |
| 2026-04-27 17:35 | -3.88680 | -34.42147 | 29929 ft | 236 kts | 266° |
| 2026-04-27 17:35 | -3.88715 | -34.43790 | 29931 ft | 236 kts | 266° |
| 2026-04-27 17:36 | -3.88750 | -34.45432 | 29930 ft | 236 kts | 266° |
| 2026-04-27 17:36 | -3.88785 | -34.47075 | 29930 ft | 236 kts | 266° |
| 2026-04-27 17:36 | -3.88821 | -34.48721 | 29927 ft | 236 kts | 267° |
| 2026-04-27 17:36 | -3.88855 | -34.50363 | 29925 ft | 236 kts | 267° |
| 2026-04-27 17:37 | -3.88890 | -34.52008 | 29927 ft | 236 kts | 267° |
| 2026-04-27 17:37 | -3.88925 | -34.53650 | 29927 ft | 236 kts | 267° |
| 2026-04-27 17:37 | -3.88960 | -34.55293 | 29927 ft | 236 kts | 267° |
| 2026-04-27 17:37 | -3.88995 | -34.56934 | 29926 ft | 236 kts | 267° |
| 2026-04-27 17:38 | -3.89030 | -34.58578 | 29922 ft | 236 kts | 267° |
| 2026-04-27 17:38 | -3.89065 | -34.60201 | 29922 ft | 236 kts | 267° |
| 2026-04-27 17:38 | -3.89099 | -34.61847 | 29926 ft | 236 kts | 267° |
| 2026-04-27 17:38 | -3.89134 | -34.63488 | 29922 ft | 236 kts | 267° |
| 2026-04-27 17:39 | -3.89169 | -34.65128 | 29924 ft | 236 kts | 267° |
| 2026-04-27 17:39 | -3.89203 | -34.66772 | 29923 ft | 236 kts | 267° |
| 2026-04-27 17:39 | -3.89238 | -34.68415 | 29922 ft | 236 kts | 267° |
| 2026-04-27 17:39 | -3.89273 | -34.70060 | 29924 ft | 236 kts | 267° |
| 2026-04-27 17:40 | -3.89307 | -34.71702 | 29924 ft | 236 kts | 267° |
| 2026-04-27 17:40 | -3.89342 | -34.73344 | 29924 ft | 236 kts | 267° |
| 2026-04-27 17:40 | -3.89377 | -34.74984 | 29925 ft | 236 kts | 267° |
| 2026-04-27 17:40 | -3.89411 | -34.76627 | 29925 ft | 236 kts | 268° |
| 2026-04-27 17:41 | -3.89445 | -34.78271 | 29928 ft | 236 kts | 267° |
| 2026-04-27 17:41 | -3.89480 | -34.79912 | 29928 ft | 236 kts | 267° |
| 2026-04-27 17:41 | -3.89514 | -34.81555 | 29928 ft | 236 kts | 267° |
| 2026-04-27 17:41 | -3.89548 | -34.83194 | 29928 ft | 236 kts | 267° |
| 2026-04-27 17:42 | -3.89583 | -34.84826 | 29931 ft | 236 kts | 267° |
| 2026-04-27 17:42 | -3.89617 | -34.86464 | 29930 ft | 236 kts | 267° |
| 2026-04-27 17:42 | -3.89651 | -34.88109 | 29929 ft | 236 kts | 267° |
| 2026-04-27 17:42 | -3.89685 | -34.89752 | 29929 ft | 236 kts | 267° |
| 2026-04-27 17:43 | -3.89719 | -34.91372 | 29926 ft | 236 kts | 267° |
| 2026-04-27 17:43 | -3.89753 | -34.93010 | 29926 ft | 236 kts | 267° |
| 2026-04-27 17:43 | -3.89787 | -34.94651 | 29927 ft | 235 kts | 267° |
| 2026-04-27 17:43 | -3.89822 | -34.96290 | 29926 ft | 235 kts | 267° |
| 2026-04-27 17:44 | -3.89855 | -34.97927 | 29929 ft | 235 kts | 267° |
| 2026-04-27 17:44 | -3.89890 | -34.99567 | 29934 ft | 235 kts | 268° |
| 2026-04-27 17:44 | -3.89923 | -35.01208 | 29933 ft | 236 kts | 268° |
| 2026-04-27 17:44 | -3.89957 | -35.02850 | 29935 ft | 236 kts | 268° |
| 2026-04-27 17:45 | -3.89991 | -35.04493 | 29933 ft | 236 kts | 268° |
| 2026-04-27 17:45 | -3.90025 | -35.06135 | 29933 ft | 236 kts | 268° |
| 2026-04-27 17:45 | -3.90059 | -35.07777 | 29933 ft | 236 kts | 268° |
| 2026-04-27 17:45 | -3.90093 | -35.09421 | 29933 ft | 236 kts | 268° |
| 2026-04-27 17:46 | -3.90127 | -35.11064 | 29932 ft | 236 kts | 268° |
| 2026-04-27 17:46 | -3.90161 | -35.12712 | 29932 ft | 236 kts | 268° |
| 2026-04-27 17:46 | -3.90194 | -35.14357 | 29932 ft | 236 kts | 268° |
| 2026-04-27 17:46 | -3.90229 | -35.16003 | 29933 ft | 236 kts | 268° |
| 2026-04-27 17:47 | -3.90263 | -35.17632 | 29935 ft | 236 kts | 268° |
| 2026-04-27 17:47 | -3.90287 | -35.18742 | 29937 ft | 236 kts | 268° |
| 2026-04-27 17:47 | -3.90330 | -35.20920 | 29938 ft | 236 kts | 268° |
| 2026-04-27 17:47 | -3.90362 | -35.22567 | 29938 ft | 236 kts | 268° |
| 2026-04-27 17:48 | -3.90396 | -35.24214 | 29938 ft | 236 kts | 268° |
| 2026-04-27 17:48 | -3.90430 | -35.25857 | 29934 ft | 236 kts | 268° |
| 2026-04-27 17:48 | -3.90464 | -35.27504 | 29936 ft | 236 kts | 268° |
| 2026-04-27 17:48 | -3.90497 | -35.29151 | 29937 ft | 237 kts | 268° |
| 2026-04-27 17:49 | -3.90530 | -35.30777 | 29938 ft | 237 kts | 268° |
| 2026-04-27 17:49 | -3.90564 | -35.32422 | 29938 ft | 237 kts | 268° |
| 2026-04-27 17:49 | -3.90598 | -35.34075 | 29938 ft | 237 kts | 268° |
| 2026-04-27 17:49 | -3.90631 | -35.35727 | 29938 ft | 237 kts | 268° |
| 2026-04-27 17:50 | -3.90664 | -35.37376 | 29939 ft | 237 kts | 268° |
| 2026-04-27 17:50 | -3.90731 | -35.40679 | 29939 ft | 237 kts | 268° |
| 2026-04-27 17:50 | -3.90764 | -35.42330 | 29939 ft | 237 kts | 268° |
| 2026-04-27 17:51 | -3.90798 | -35.43958 | 29938 ft | 237 kts | 268° |
| 2026-04-27 17:51 | -3.90832 | -35.45629 | 29938 ft | 237 kts | 268° |
| 2026-04-27 17:51 | -3.90864 | -35.47257 | 29937 ft | 237 kts | 268° |
| 2026-04-27 17:51 | -3.90897 | -35.48906 | 29937 ft | 237 kts | 268° |
| 2026-04-27 17:52 | -3.90931 | -35.50559 | 29937 ft | 237 kts | 268° |
| 2026-04-27 17:52 | -3.90964 | -35.52210 | 29938 ft | 237 kts | 268° |
| 2026-04-27 17:52 | -3.90997 | -35.53863 | 29939 ft | 237 kts | 268° |
| 2026-04-27 17:52 | -3.91030 | -35.55518 | 29940 ft | 237 kts | 268° |
| 2026-04-27 17:53 | -3.91064 | -35.57169 | 29940 ft | 237 kts | 268° |
| 2026-04-27 17:53 | -3.91097 | -35.58823 | 29940 ft | 237 kts | 268° |
| 2026-04-27 17:53 | -3.91130 | -35.60475 | 29940 ft | 237 kts | 268° |
| 2026-04-27 17:53 | -3.91162 | -35.62108 | 29940 ft | 237 kts | 268° |
| 2026-04-27 17:54 | -3.91195 | -35.63761 | 29940 ft | 237 kts | 268° |
| 2026-04-27 17:54 | -3.91228 | -35.65417 | 29940 ft | 237 kts | 268° |
| 2026-04-27 17:54 | -3.91261 | -35.67068 | 29940 ft | 237 kts | 268° |
| 2026-04-27 17:54 | -3.91294 | -35.68719 | 29940 ft | 237 kts | 268° |
| 2026-04-27 17:55 | -3.91327 | -35.70371 | 29940 ft | 237 kts | 268° |
| 2026-04-27 17:55 | -3.91360 | -35.72024 | 29939 ft | 237 kts | 268° |
| 2026-04-27 17:55 | -3.91392 | -35.73677 | 29939 ft | 237 kts | 268° |
| 2026-04-27 17:55 | -3.91425 | -35.75329 | 29939 ft | 237 kts | 268° |
| 2026-04-27 17:56 | -3.91458 | -35.76983 | 29939 ft | 237 kts | 269° |
| 2026-04-27 17:56 | -3.91491 | -35.78635 | 29940 ft | 237 kts | 269° |
| 2026-04-27 17:56 | -3.91524 | -35.80291 | 29940 ft | 237 kts | 269° |
| 2026-04-27 17:56 | -3.91556 | -35.81944 | 29939 ft | 237 kts | 269° |
| 2026-04-27 17:57 | -3.91588 | -35.83579 | 29941 ft | 237 kts | 269° |
| 2026-04-27 17:57 | -3.91622 | -35.85251 | 29939 ft | 237 kts | 269° |
| 2026-04-27 17:57 | -3.91653 | -35.86882 | 29937 ft | 237 kts | 269° |
| 2026-04-27 17:57 | -3.91686 | -35.88535 | 29937 ft | 237 kts | 269° |
| 2026-04-27 17:58 | -3.91719 | -35.90193 | 29937 ft | 237 kts | 269° |
| 2026-04-27 17:58 | -3.91751 | -35.91844 | 29938 ft | 237 kts | 269° |
| 2026-04-27 17:58 | -3.91784 | -35.93496 | 29941 ft | 237 kts | 269° |
| 2026-04-27 17:58 | -3.91816 | -35.95148 | 29938 ft | 237 kts | 269° |
| 2026-04-27 17:59 | -3.91848 | -35.96800 | 29942 ft | 237 kts | 269° |
| 2026-04-27 17:59 | -3.91880 | -35.98456 | 29942 ft | 238 kts | 269° |
| 2026-04-27 17:59 | -3.91913 | -36.00111 | 29942 ft | 238 kts | 269° |
| 2026-04-27 17:59 | -3.91945 | -36.01765 | 29941 ft | 237 kts | 269° |
| 2026-04-27 18:00 | -3.91977 | -36.03418 | 29941 ft | 237 kts | 269° |
| 2026-04-27 18:00 | -3.92009 | -36.05070 | 29945 ft | 237 kts | 269° |
| 2026-04-27 18:00 | -3.92041 | -36.06704 | 29941 ft | 237 kts | 269° |
| 2026-04-27 18:00 | -3.92073 | -36.08354 | 29940 ft | 237 kts | 269° |
| 2026-04-27 18:01 | -3.92105 | -36.10009 | 29934 ft | 238 kts | 269° |
| 2026-04-27 18:01 | -3.92138 | -36.11666 | 29938 ft | 238 kts | 269° |
| 2026-04-27 18:01 | -3.92169 | -36.13328 | 29937 ft | 238 kts | 269° |
| 2026-04-27 18:01 | -3.92202 | -36.14988 | 29936 ft | 238 kts | 269° |
| 2026-04-27 18:02 | -3.92234 | -36.16646 | 29939 ft | 238 kts | 269° |
| 2026-04-27 18:02 | -3.92266 | -36.18287 | 29939 ft | 238 kts | 269° |
| 2026-04-27 18:02 | -3.92298 | -36.19950 | 29938 ft | 239 kts | 269° |
| 2026-04-27 18:02 | -3.92330 | -36.21611 | 29937 ft | 239 kts | 269° |
| 2026-04-27 18:03 | -3.92362 | -36.23280 | 29934 ft | 239 kts | 269° |
| 2026-04-27 18:03 | -3.92394 | -36.24944 | 29935 ft | 239 kts | 269° |
| 2026-04-27 18:03 | -3.92426 | -36.26617 | 29928 ft | 239 kts | 269° |
| 2026-04-27 18:03 | -3.92458 | -36.28281 | 29929 ft | 238 kts | 269° |
| 2026-04-27 18:04 | -3.92490 | -36.29939 | 29934 ft | 238 kts | 269° |
| 2026-04-27 18:04 | -3.92521 | -36.31571 | 29932 ft | 237 kts | 269° |
| 2026-04-27 18:04 | -3.92553 | -36.33221 | 29930 ft | 237 kts | 269° |
| 2026-04-27 18:04 | -3.92584 | -36.34873 | 29929 ft | 236 kts | 269° |
| 2026-04-27 18:05 | -3.92616 | -36.36519 | 29925 ft | 236 kts | 269° |
| 2026-04-27 18:05 | -3.92647 | -36.38161 | 29924 ft | 236 kts | 269° |
| 2026-04-27 18:05 | -3.92678 | -36.39806 | 29923 ft | 236 kts | 269° |
| 2026-04-27 18:05 | -3.92710 | -36.41449 | 29922 ft | 236 kts | 269° |
| 2026-04-27 18:06 | -3.92741 | -36.43090 | 29921 ft | 236 kts | 269° |
| 2026-04-27 18:06 | -3.92772 | -36.44733 | 29918 ft | 236 kts | 269° |
| 2026-04-27 18:06 | -3.92803 | -36.46376 | 29919 ft | 236 kts | 269° |
| 2026-04-27 18:06 | -3.92835 | -36.48021 | 29919 ft | 236 kts | 269° |
| 2026-04-27 18:07 | -3.92866 | -36.49666 | 29919 ft | 236 kts | 269° |
| 2026-04-27 18:07 | -3.92897 | -36.51315 | 29920 ft | 236 kts | 269° |
| 2026-04-27 18:07 | -3.92928 | -36.52937 | 29920 ft | 236 kts | 269° |
| 2026-04-27 18:07 | -3.92959 | -36.54582 | 29920 ft | 236 kts | 269° |
| 2026-04-27 18:08 | -3.92990 | -36.56228 | 29926 ft | 236 kts | 269° |
| 2026-04-27 18:08 | -3.93021 | -36.57874 | 29926 ft | 236 kts | 269° |
| 2026-04-27 18:08 | -3.93051 | -36.59524 | 29926 ft | 236 kts | 269° |
| 2026-04-27 18:08 | -3.93083 | -36.61168 | 29926 ft | 236 kts | 269° |
| 2026-04-27 18:09 | -3.93113 | -36.62812 | 29923 ft | 236 kts | 269° |
| 2026-04-27 18:09 | -3.93145 | -36.64461 | 29923 ft | 236 kts | 269° |
| 2026-04-27 18:09 | -3.93176 | -36.66106 | 29923 ft | 236 kts | 269° |
| 2026-04-27 18:09 | -3.93206 | -36.67751 | 29923 ft | 236 kts | 269° |
| 2026-04-27 18:10 | -3.93237 | -36.69399 | 29924 ft | 236 kts | 269° |
| 2026-04-27 18:10 | -3.93268 | -36.71025 | 29924 ft | 236 kts | 269° |
| 2026-04-27 18:10 | -3.93298 | -36.72670 | 29924 ft | 236 kts | 269° |
| 2026-04-27 18:10 | -3.93329 | -36.74319 | 29924 ft | 236 kts | 269° |
| 2026-04-27 18:11 | -3.93359 | -36.75960 | 29925 ft | 235 kts | 269° |
| 2026-04-27 18:11 | -3.93389 | -36.77589 | 29923 ft | 233 kts | 269° |
| 2026-04-27 18:11 | -3.93419 | -36.79209 | 29920 ft | 232 kts | 268° |
| 2026-04-27 18:11 | -3.93454 | -36.80834 | 29919 ft | 233 kts | 269° |
| 2026-04-27 18:12 | -3.93483 | -36.82454 | 29920 ft | 233 kts | 269° |
| 2026-04-27 18:12 | -3.93510 | -36.84052 | 29920 ft | 233 kts | 269° |
| 2026-04-27 18:12 | -3.93540 | -36.85692 | 29921 ft | 233 kts | 269° |
| 2026-04-27 18:12 | -3.93570 | -36.87293 | 29921 ft | 233 kts | 269° |
| 2026-04-27 18:13 | -3.93600 | -36.88912 | 29920 ft | 233 kts | 269° |
| 2026-04-27 18:13 | -3.93630 | -36.90531 | 29921 ft | 233 kts | 269° |
| 2026-04-27 18:13 | -3.93660 | -36.92157 | 29921 ft | 233 kts | 269° |
| 2026-04-27 18:13 | -3.93689 | -36.93784 | 29922 ft | 233 kts | 269° |
| 2026-04-27 18:14 | -3.93720 | -36.95406 | 29919 ft | 233 kts | 269° |
| 2026-04-27 18:14 | -3.93749 | -36.97029 | 29920 ft | 233 kts | 269° |
| 2026-04-27 18:14 | -3.93779 | -36.98653 | 29920 ft | 233 kts | 269° |
| 2026-04-27 18:14 | -3.93807 | -37.00276 | 29931 ft | 232 kts | 269° |
| 2026-04-27 18:15 | -3.93837 | -37.01860 | 29929 ft | 230 kts | 269° |
| 2026-04-27 18:15 | -3.93868 | -37.03459 | 29931 ft | 230 kts | 269° |
| 2026-04-27 18:15 | -3.93899 | -37.05058 | 29931 ft | 230 kts | 269° |
| 2026-04-27 18:15 | -3.93926 | -37.06659 | 29931 ft | 230 kts | 269° |
| 2026-04-27 18:16 | -3.93955 | -37.08260 | 29935 ft | 230 kts | 269° |
| 2026-04-27 18:16 | -3.93984 | -37.09860 | 29934 ft | 230 kts | 269° |
| 2026-04-27 18:16 | -3.94013 | -37.11459 | 29934 ft | 230 kts | 269° |
| 2026-04-27 18:16 | -3.94042 | -37.13057 | 29934 ft | 230 kts | 269° |
| 2026-04-27 18:17 | -3.94071 | -37.14657 | 29931 ft | 230 kts | 269° |
| 2026-04-27 18:17 | -3.94100 | -37.16258 | 29931 ft | 230 kts | 269° |
| 2026-04-27 18:17 | -3.94129 | -37.17843 | 29931 ft | 229 kts | 269° |
| 2026-04-27 18:17 | -3.94158 | -37.19441 | 29931 ft | 229 kts | 269° |
| 2026-04-27 18:18 | -3.94187 | -37.21042 | 29930 ft | 230 kts | 269° |
| 2026-04-27 18:18 | -3.94216 | -37.22642 | 29930 ft | 230 kts | 269° |
| 2026-04-27 18:18 | -3.94245 | -37.24239 | 29934 ft | 229 kts | 269° |
| 2026-04-27 18:18 | -3.94272 | -37.25814 | 29934 ft | 228 kts | 269° |
| 2026-04-27 18:19 | -3.94305 | -37.27400 | 29931 ft | 227 kts | 270° |
| 2026-04-27 18:19 | -3.94331 | -37.28984 | 29933 ft | 228 kts | 269° |
| 2026-04-27 18:19 | -3.94350 | -37.30034 | 29935 ft | 228 kts | 269° |
| 2026-04-27 18:19 | -3.94388 | -37.32161 | 29931 ft | 228 kts | 269° |
| 2026-04-27 18:20 | -3.94406 | -37.33213 | 29932 ft | 228 kts | 269° |
| 2026-04-27 18:20 | -3.94435 | -37.34798 | 29931 ft | 227 kts | 269° |
| 2026-04-27 18:20 | -3.94463 | -37.36385 | 29931 ft | 227 kts | 269° |
| 2026-04-27 18:20 | -3.94491 | -37.37967 | 29930 ft | 227 kts | 269° |
| 2026-04-27 18:21 | -3.94519 | -37.39551 | 29934 ft | 227 kts | 269° |
| 2026-04-27 18:21 | -3.94548 | -37.41135 | 29934 ft | 227 kts | 269° |
| 2026-04-27 18:21 | -3.94576 | -37.42720 | 29934 ft | 227 kts | 269° |
| 2026-04-27 18:21 | -3.94604 | -37.44307 | 29934 ft | 227 kts | 269° |
| 2026-04-27 18:22 | -3.94632 | -37.45872 | 29931 ft | 227 kts | 269° |
| 2026-04-27 18:22 | -3.94660 | -37.47453 | 29931 ft | 227 kts | 269° |
| 2026-04-27 18:22 | -3.94689 | -37.49039 | 29930 ft | 228 kts | 269° |
| 2026-04-27 18:22 | -3.94717 | -37.50630 | 29930 ft | 228 kts | 269° |
| 2026-04-27 18:23 | -3.94745 | -37.52220 | 29934 ft | 228 kts | 269° |
| 2026-04-27 18:23 | -3.94773 | -37.53811 | 29934 ft | 228 kts | 269° |
| 2026-04-27 18:23 | -3.94801 | -37.55398 | 29934 ft | 228 kts | 269° |
| 2026-04-27 18:23 | -3.94829 | -37.56995 | 29934 ft | 228 kts | 269° |
| 2026-04-27 18:24 | -3.94857 | -37.58585 | 29931 ft | 228 kts | 269° |
| 2026-04-27 18:24 | -3.94885 | -37.60173 | 29931 ft | 228 kts | 269° |
| 2026-04-27 18:24 | -3.94913 | -37.61759 | 29931 ft | 228 kts | 269° |
| 2026-04-27 18:24 | -3.94941 | -37.63327 | 29931 ft | 228 kts | 269° |
| 2026-04-27 18:25 | -3.94969 | -37.64918 | 29934 ft | 228 kts | 269° |
| 2026-04-27 18:25 | -3.94997 | -37.66507 | 29934 ft | 228 kts | 269° |
| 2026-04-27 18:25 | -3.95024 | -37.68092 | 29934 ft | 228 kts | 269° |
| 2026-04-27 18:25 | -3.95052 | -37.69682 | 29934 ft | 228 kts | 269° |
| 2026-04-27 18:26 | -3.95080 | -37.71270 | 29934 ft | 228 kts | 269° |
| 2026-04-27 18:26 | -3.95108 | -37.72861 | 29929 ft | 228 kts | 269° |
| 2026-04-27 18:26 | -3.95135 | -37.74430 | 29928 ft | 228 kts | 269° |
| 2026-04-27 18:26 | -3.95163 | -37.76019 | 29928 ft | 228 kts | 269° |
| 2026-04-27 18:27 | -3.95190 | -37.77607 | 29932 ft | 228 kts | 269° |
| 2026-04-27 18:27 | -3.95218 | -37.79198 | 29931 ft | 228 kts | 269° |
| 2026-04-27 18:27 | -3.95246 | -37.80787 | 29931 ft | 228 kts | 269° |
| 2026-04-27 18:27 | -3.95274 | -37.82380 | 29928 ft | 228 kts | 269° |
| 2026-04-27 18:28 | -3.95301 | -37.83965 | 29931 ft | 228 kts | 269° |
| 2026-04-27 18:28 | -3.95329 | -37.85553 | 29931 ft | 228 kts | 269° |
| 2026-04-27 18:28 | -3.95356 | -37.87141 | 29931 ft | 228 kts | 269° |
| 2026-04-27 18:28 | -3.95383 | -37.88727 | 29931 ft | 228 kts | 269° |
| 2026-04-27 18:29 | -3.95411 | -37.90294 | 29925 ft | 228 kts | 269° |
| 2026-04-27 18:29 | -3.95438 | -37.91879 | 29925 ft | 228 kts | 269° |
| 2026-04-27 18:29 | -3.95465 | -37.93470 | 29926 ft | 228 kts | 269° |
| 2026-04-27 18:29 | -3.95492 | -37.95056 | 29926 ft | 228 kts | 269° |
| 2026-04-27 18:30 | -3.95520 | -37.96646 | 29922 ft | 228 kts | 270° |
| 2026-04-27 18:30 | -3.95546 | -37.98229 | 29918 ft | 227 kts | 270° |
| 2026-04-27 18:30 | -3.95576 | -37.99805 | 29920 ft | 227 kts | 270° |
| 2026-04-27 18:30 | -3.95604 | -38.01387 | 29920 ft | 227 kts | 270° |
| 2026-04-27 18:31 | -3.95629 | -38.02954 | 29924 ft | 228 kts | 270° |
| 2026-04-27 18:31 | -3.95655 | -38.04540 | 29925 ft | 228 kts | 270° |
| 2026-04-27 18:31 | -3.95682 | -38.06127 | 29926 ft | 228 kts | 270° |
| 2026-04-27 18:31 | -3.95709 | -38.07717 | 29927 ft | 228 kts | 270° |
| 2026-04-27 18:32 | -3.95736 | -38.09306 | 29925 ft | 228 kts | 270° |
| 2026-04-27 18:32 | -3.95763 | -38.10898 | 29926 ft | 228 kts | 270° |
| 2026-04-27 18:32 | -3.95790 | -38.12488 | 29927 ft | 229 kts | 270° |
| 2026-04-27 18:32 | -3.95818 | -38.14087 | 29929 ft | 229 kts | 270° |
| 2026-04-27 18:33 | -3.95844 | -38.15684 | 29930 ft | 230 kts | 270° |
| 2026-04-27 18:33 | -3.95872 | -38.17281 | 29930 ft | 229 kts | 270° |
| 2026-04-27 18:33 | -3.95899 | -38.18879 | 29930 ft | 229 kts | 270° |
| 2026-04-27 18:33 | -3.95925 | -38.20474 | 29933 ft | 229 kts | 270° |
| 2026-04-27 18:34 | -3.95953 | -38.22071 | 29934 ft | 229 kts | 270° |
| 2026-04-27 18:34 | -3.95980 | -38.23651 | 29934 ft | 229 kts | 270° |
| 2026-04-27 18:34 | -3.96007 | -38.25247 | 29934 ft | 229 kts | 270° |
| 2026-04-27 18:34 | -3.96033 | -38.26847 | 29934 ft | 229 kts | 270° |
| 2026-04-27 18:35 | -3.96060 | -38.28446 | 29933 ft | 229 kts | 270° |
| 2026-04-27 18:35 | -3.96087 | -38.30043 | 29933 ft | 229 kts | 270° |
| 2026-04-27 18:35 | -3.96113 | -38.31639 | 29933 ft | 229 kts | 270° |
| 2026-04-27 18:35 | -3.96140 | -38.33235 | 29933 ft | 229 kts | 270° |
| 2026-04-27 18:36 | -3.96167 | -38.34833 | 29930 ft | 229 kts | 270° |
| 2026-04-27 18:36 | -3.96194 | -38.36429 | 29930 ft | 229 kts | 270° |
| 2026-04-27 18:36 | -3.96220 | -38.38010 | 29933 ft | 229 kts | 270° |
| 2026-04-27 18:36 | -3.96247 | -38.39610 | 29933 ft | 229 kts | 270° |
| 2026-04-27 18:37 | -3.96273 | -38.41209 | 29933 ft | 229 kts | 270° |
| 2026-04-27 18:37 | -3.96300 | -38.42805 | 29933 ft | 229 kts | 269° |
| 2026-04-27 18:37 | -3.96325 | -38.44401 | 29921 ft | 229 kts | 269° |
| 2026-04-27 18:37 | -3.96354 | -38.45991 | 29918 ft | 228 kts | 269° |
| 2026-04-27 18:38 | -3.96382 | -38.47588 | 29923 ft | 229 kts | 269° |
| 2026-04-27 18:38 | -3.96406 | -38.49187 | 29924 ft | 230 kts | 269° |
| 2026-04-27 18:38 | -3.96432 | -38.50769 | 29926 ft | 230 kts | 269° |
| 2026-04-27 18:38 | -3.96458 | -38.52372 | 29927 ft | 230 kts | 269° |
| 2026-04-27 18:39 | -3.96485 | -38.53973 | 29926 ft | 230 kts | 269° |
| 2026-04-27 18:39 | -3.96511 | -38.55572 | 29927 ft | 230 kts | 269° |
| 2026-04-27 18:39 | -3.96538 | -38.57174 | 29928 ft | 230 kts | 269° |
| 2026-04-27 18:39 | -3.96564 | -38.58775 | 29929 ft | 230 kts | 269° |
| 2026-04-27 18:40 | -3.96590 | -38.60375 | 29926 ft | 230 kts | 269° |
| 2026-04-27 18:40 | -3.96616 | -38.61976 | 29927 ft | 230 kts | 269° |
| 2026-04-27 18:40 | -3.96642 | -38.63581 | 29927 ft | 230 kts | 269° |
| 2026-04-27 18:40 | -3.96669 | -38.65184 | 29927 ft | 230 kts | 270° |
| 2026-04-27 18:41 | -3.96695 | -38.66783 | 29935 ft | 229 kts | 269° |
| 2026-04-27 18:41 | -3.96721 | -38.68360 | 29926 ft | 229 kts | 269° |
| 2026-04-27 18:41 | -3.96747 | -38.69955 | 29922 ft | 229 kts | 269° |
| 2026-04-27 18:41 | -3.96770 | -38.71550 | 29924 ft | 229 kts | 269° |
| 2026-04-27 18:42 | -3.96800 | -38.73148 | 29926 ft | 230 kts | 269° |
| 2026-04-27 18:42 | -3.96819 | -38.74233 | 29927 ft | 230 kts | 269° |
| 2026-04-27 18:42 | -3.96852 | -38.76359 | 29932 ft | 231 kts | 269° |
| 2026-04-27 18:42 | -3.96877 | -38.77967 | 29935 ft | 231 kts | 269° |
| 2026-04-27 18:43 | -3.96903 | -38.79578 | 29938 ft | 231 kts | 269° |
| 2026-04-27 18:43 | -3.96929 | -38.81188 | 29940 ft | 231 kts | 269° |
| 2026-04-27 18:43 | -3.96955 | -38.82802 | 29941 ft | 231 kts | 269° |
| 2026-04-27 18:43 | -3.96981 | -38.84415 | 29941 ft | 231 kts | 269° |
| 2026-04-27 18:44 | -3.97007 | -38.86005 | 29944 ft | 231 kts | 269° |
| 2026-04-27 18:44 | -3.96989 | -38.87633 | 29939 ft | 231 kts | 278° |
| 2026-04-27 18:44 | -3.96693 | -38.89187 | 29940 ft | 230 kts | 281° |
| 2026-04-27 18:44 | -3.96400 | -38.90764 | 29943 ft | 230 kts | 281° |
| 2026-04-27 18:45 | -3.96112 | -38.92347 | 29937 ft | 231 kts | 281° |
| 2026-04-27 18:45 | -3.95819 | -38.93928 | 29938 ft | 231 kts | 281° |
| 2026-04-27 18:45 | -3.95524 | -38.95507 | 29939 ft | 230 kts | 281° |
| 2026-04-27 18:45 | -3.95230 | -38.97086 | 29938 ft | 230 kts | 281° |
| 2026-04-27 18:46 | -3.94936 | -38.98667 | 29944 ft | 231 kts | 281° |
| 2026-04-27 18:46 | -3.94641 | -39.00250 | 29945 ft | 230 kts | 281° |
| 2026-04-27 18:46 | -3.94351 | -39.01809 | 29945 ft | 231 kts | 281° |
| 2026-04-27 18:46 | -3.94057 | -39.03386 | 29945 ft | 231 kts | 281° |
| 2026-04-27 18:47 | -3.93764 | -39.04962 | 29942 ft | 230 kts | 281° |
| 2026-04-27 18:47 | -3.93470 | -39.06541 | 29942 ft | 230 kts | 281° |
| 2026-04-27 18:47 | -3.93176 | -39.08120 | 29942 ft | 230 kts | 281° |
| 2026-04-27 18:47 | -3.92882 | -39.09698 | 29942 ft | 230 kts | 281° |
| 2026-04-27 18:48 | -3.92589 | -39.11274 | 29941 ft | 230 kts | 281° |
| 2026-04-27 18:48 | -3.92295 | -39.12850 | 29936 ft | 230 kts | 281° |
| 2026-04-27 18:48 | -3.92000 | -39.14439 | 29937 ft | 231 kts | 281° |
| 2026-04-27 18:48 | -3.91705 | -39.16022 | 29939 ft | 231 kts | 281° |
| 2026-04-27 18:49 | -3.91414 | -39.17587 | 29940 ft | 231 kts | 281° |
| 2026-04-27 18:49 | -3.91119 | -39.19171 | 29939 ft | 231 kts | 281° |
| 2026-04-27 18:49 | -3.90824 | -39.20751 | 29939 ft | 231 kts | 281° |
| 2026-04-27 18:49 | -3.90530 | -39.22330 | 29939 ft | 231 kts | 281° |
| 2026-04-27 18:50 | -3.90236 | -39.23910 | 29942 ft | 231 kts | 281° |
| 2026-04-27 18:50 | -3.89941 | -39.25493 | 29942 ft | 231 kts | 281° |
| 2026-04-27 18:50 | -3.89646 | -39.27076 | 29941 ft | 231 kts | 281° |
| 2026-04-27 18:50 | -3.89351 | -39.28660 | 29941 ft | 231 kts | 281° |
| 2026-04-27 18:51 | -3.89056 | -39.30244 | 29935 ft | 231 kts | 281° |
| 2026-04-27 18:51 | -3.88761 | -39.31827 | 29940 ft | 231 kts | 281° |
| 2026-04-27 18:51 | -3.88465 | -39.33410 | 29941 ft | 231 kts | 281° |
| 2026-04-27 18:51 | -3.88171 | -39.34992 | 29940 ft | 231 kts | 281° |
| 2026-04-27 18:52 | -3.87875 | -39.36578 | 29938 ft | 232 kts | 281° |
| 2026-04-27 18:52 | -3.87578 | -39.38170 | 29938 ft | 233 kts | 281° |
| 2026-04-27 18:52 | -3.87279 | -39.39771 | 29939 ft | 233 kts | 281° |
| 2026-04-27 18:53 | -3.86687 | -39.42950 | 29947 ft | 233 kts | 281° |
| 2026-04-27 18:53 | -3.86388 | -39.44551 | 29948 ft | 234 kts | 281° |
| 2026-04-27 18:53 | -3.86089 | -39.46152 | 29945 ft | 234 kts | 281° |
| 2026-04-27 18:53 | -3.85791 | -39.47748 | 29946 ft | 233 kts | 281° |
| 2026-04-27 18:54 | -3.85493 | -39.49349 | 29941 ft | 233 kts | 281° |
| 2026-04-27 18:54 | -3.85195 | -39.50947 | 29941 ft | 233 kts | 281° |
| 2026-04-27 18:54 | -3.84897 | -39.52544 | 29941 ft | 233 kts | 281° |
| 2026-04-27 18:54 | -3.84598 | -39.54142 | 29941 ft | 233 kts | 281° |
| 2026-04-27 18:55 | -3.84300 | -39.55740 | 29944 ft | 233 kts | 281° |
| 2026-04-27 18:55 | -3.84001 | -39.57340 | 29945 ft | 233 kts | 281° |
| 2026-04-27 18:55 | -3.83702 | -39.58941 | 29942 ft | 234 kts | 281° |
| 2026-04-27 18:55 | -3.83406 | -39.60527 | 29942 ft | 235 kts | 281° |
| 2026-04-27 18:56 | -3.83105 | -39.62134 | 29940 ft | 235 kts | 281° |
| 2026-04-27 18:56 | -3.82805 | -39.63745 | 29942 ft | 235 kts | 281° |
| 2026-04-27 18:56 | -3.82504 | -39.65357 | 29943 ft | 236 kts | 281° |
| 2026-04-27 18:56 | -3.82201 | -39.66976 | 29944 ft | 236 kts | 281° |
| 2026-04-27 18:57 | -3.81899 | -39.68590 | 29942 ft | 236 kts | 281° |
| 2026-04-27 18:57 | -3.81588 | -39.70201 | 29944 ft | 236 kts | 281° |
| 2026-04-27 18:57 | -3.81277 | -39.71814 | 29945 ft | 236 kts | 281° |
| 2026-04-27 18:57 | -3.80967 | -39.73425 | 29945 ft | 236 kts | 281° |
| 2026-04-27 18:58 | -3.80659 | -39.75038 | 29941 ft | 236 kts | 281° |
| 2026-04-27 18:58 | -3.80454 | -39.76103 | 29938 ft | 236 kts | 281° |
| 2026-04-27 18:58 | -3.80040 | -39.78260 | 29938 ft | 235 kts | 281° |
| 2026-04-27 18:58 | -3.79731 | -39.79867 | 29939 ft | 235 kts | 281° |
| 2026-04-27 18:59 | -3.79426 | -39.81459 | 29935 ft | 236 kts | 281° |
| 2026-04-27 18:59 | -3.79116 | -39.83073 | 29940 ft | 236 kts | 281° |
| 2026-04-27 18:59 | -3.78806 | -39.84691 | 29941 ft | 236 kts | 281° |
| 2026-04-27 18:59 | -3.78495 | -39.86305 | 29940 ft | 237 kts | 281° |
| 2026-04-27 19:00 | -3.78183 | -39.87927 | 29940 ft | 237 kts | 281° |
| 2026-04-27 19:00 | -3.77872 | -39.89550 | 29939 ft | 237 kts | 281° |
| 2026-04-27 19:00 | -3.77562 | -39.91170 | 29940 ft | 237 kts | 281° |
| 2026-04-27 19:00 | -3.77249 | -39.92796 | 29940 ft | 237 kts | 281° |
| 2026-04-27 19:01 | -3.76936 | -39.94420 | 29936 ft | 237 kts | 281° |
| 2026-04-27 19:01 | -3.76624 | -39.96044 | 29935 ft | 238 kts | 281° |
| 2026-04-27 19:01 | -3.76315 | -39.97652 | 29935 ft | 238 kts | 281° |
| 2026-04-27 19:01 | -3.76003 | -39.99278 | 29934 ft | 238 kts | 281° |
| 2026-04-27 19:02 | -3.75691 | -40.00901 | 29937 ft | 237 kts | 281° |
| 2026-04-27 19:02 | -3.75378 | -40.02528 | 29937 ft | 237 kts | 281° |
| 2026-04-27 19:02 | -3.75066 | -40.04152 | 29938 ft | 237 kts | 281° |
| 2026-04-27 19:02 | -3.74755 | -40.05771 | 29938 ft | 237 kts | 281° |
| 2026-04-27 19:03 | -3.74443 | -40.07390 | 29935 ft | 237 kts | 281° |
| 2026-04-27 19:03 | -3.74135 | -40.08990 | 29935 ft | 237 kts | 281° |
| 2026-04-27 19:03 | -3.73946 | -40.10626 | 29934 ft | 237 kts | 270° |
| 2026-04-27 19:03 | -3.73936 | -40.11722 | 29935 ft | 237 kts | 270° |
| 2026-04-27 19:04 | -3.73884 | -40.13927 | 29933 ft | 237 kts | 271° |
| 2026-04-27 19:04 | -3.73842 | -40.15572 | 29934 ft | 237 kts | 271° |
| 2026-04-27 19:04 | -3.73805 | -40.17203 | 29934 ft | 237 kts | 271° |
| 2026-04-27 19:04 | -3.73768 | -40.18855 | 29935 ft | 237 kts | 271° |
| 2026-04-27 19:05 | -3.73731 | -40.20503 | 29933 ft | 237 kts | 271° |
| 2026-04-27 19:05 | -3.73693 | -40.22154 | 29933 ft | 237 kts | 271° |
| 2026-04-27 19:05 | -3.73668 | -40.23247 | 29933 ft | 237 kts | 271° |
| 2026-04-27 19:05 | -3.73618 | -40.25454 | 29930 ft | 237 kts | 271° |
| 2026-04-27 19:06 | -3.73592 | -40.26544 | 29931 ft | 236 kts | 271° |
| 2026-04-27 19:06 | -3.73553 | -40.28184 | 29933 ft | 235 kts | 271° |
| 2026-04-27 19:06 | -3.73518 | -40.29821 | 29928 ft | 234 kts | 271° |
| 2026-04-27 19:06 | -3.73485 | -40.31450 | 29927 ft | 234 kts | 271° |
| 2026-04-27 19:07 | -3.73445 | -40.33087 | 29931 ft | 235 kts | 271° |
| 2026-04-27 19:07 | -3.73406 | -40.34721 | 29932 ft | 235 kts | 271° |
| 2026-04-27 19:07 | -3.73368 | -40.36354 | 29933 ft | 235 kts | 271° |
| 2026-04-27 19:07 | -3.73330 | -40.37992 | 29932 ft | 235 kts | 271° |
| 2026-04-27 19:08 | -3.73293 | -40.39629 | 29927 ft | 235 kts | 271° |
| 2026-04-27 19:08 | -3.73255 | -40.41269 | 29928 ft | 235 kts | 271° |
| 2026-04-27 19:08 | -3.73217 | -40.42910 | 29929 ft | 236 kts | 271° |
| 2026-04-27 19:08 | -3.73179 | -40.44529 | 29930 ft | 236 kts | 271° |
| 2026-04-27 19:09 | -3.73141 | -40.46169 | 29933 ft | 236 kts | 271° |
| 2026-04-27 19:09 | -3.73104 | -40.47813 | 29937 ft | 236 kts | 272° |
| 2026-04-27 19:09 | -3.73064 | -40.49453 | 29928 ft | 235 kts | 272° |
| 2026-04-27 19:09 | -3.73029 | -40.51090 | 29926 ft | 235 kts | 272° |
| 2026-04-27 19:10 | -3.72993 | -40.52730 | 29926 ft | 236 kts | 272° |
| 2026-04-27 19:10 | -3.72953 | -40.54379 | 29927 ft | 236 kts | 272° |
| 2026-04-27 19:10 | -3.72914 | -40.56003 | 29927 ft | 235 kts | 272° |
| 2026-04-27 19:10 | -3.72888 | -40.57111 | 29930 ft | 236 kts | 272° |
| 2026-04-27 19:11 | -3.72837 | -40.59286 | 29929 ft | 236 kts | 272° |
| 2026-04-27 19:11 | -3.72799 | -40.60929 | 29929 ft | 235 kts | 272° |
| 2026-04-27 19:11 | -3.72760 | -40.62566 | 29929 ft | 235 kts | 272° |
| 2026-04-27 19:11 | -3.72722 | -40.64204 | 29929 ft | 235 kts | 272° |
| 2026-04-27 19:12 | -3.72683 | -40.65844 | 29935 ft | 235 kts | 272° |
| 2026-04-27 19:12 | -3.72646 | -40.67463 | 29935 ft | 236 kts | 272° |
| 2026-04-27 19:12 | -3.72607 | -40.69105 | 29935 ft | 236 kts | 272° |
| 2026-04-27 19:12 | -3.72569 | -40.70747 | 29931 ft | 237 kts | 272° |
| 2026-04-27 19:13 | -3.72530 | -40.72402 | 29935 ft | 238 kts | 272° |
| 2026-04-27 19:13 | -3.72490 | -40.74065 | 29940 ft | 239 kts | 272° |
| 2026-04-27 19:13 | -3.72451 | -40.75729 | 29941 ft | 239 kts | 272° |
| 2026-04-27 19:13 | -3.72412 | -40.77391 | 29941 ft | 238 kts | 272° |
| 2026-04-27 19:14 | -3.72373 | -40.79050 | 29940 ft | 239 kts | 272° |
| 2026-04-27 19:14 | -3.72334 | -40.80708 | 29940 ft | 238 kts | 272° |
| 2026-04-27 19:14 | -3.72295 | -40.82368 | 29941 ft | 238 kts | 272° |
| 2026-04-27 19:14 | -3.72256 | -40.84009 | 29945 ft | 238 kts | 272° |
| 2026-04-27 19:15 | -3.72216 | -40.85667 | 29943 ft | 238 kts | 272° |
| 2026-04-27 19:15 | -3.72177 | -40.87327 | 29942 ft | 238 kts | 272° |
| 2026-04-27 19:15 | -3.72138 | -40.88985 | 29943 ft | 238 kts | 272° |
| 2026-04-27 19:15 | -3.72098 | -40.90644 | 29943 ft | 238 kts | 272° |
| 2026-04-27 19:16 | -3.72059 | -40.92303 | 29948 ft | 239 kts | 271° |
| 2026-04-27 19:16 | -3.72033 | -40.93405 | 29945 ft | 240 kts | 271° |
| 2026-04-27 19:16 | -3.71980 | -40.95644 | 29946 ft | 240 kts | 271° |
| 2026-04-27 19:16 | -3.71940 | -40.97325 | 29947 ft | 241 kts | 271° |
| 2026-04-27 19:17 | -3.71900 | -40.98980 | 29944 ft | 241 kts | 271° |
| 2026-04-27 19:17 | -3.71860 | -41.00657 | 29945 ft | 241 kts | 271° |
| 2026-04-27 19:17 | -3.71820 | -41.02334 | 29945 ft | 241 kts | 271° |
| 2026-04-27 19:17 | -3.71780 | -41.04012 | 29945 ft | 241 kts | 271° |
| 2026-04-27 19:18 | -3.71740 | -41.05685 | 29948 ft | 241 kts | 271° |
| 2026-04-27 19:18 | -3.71699 | -41.07362 | 29948 ft | 241 kts | 271° |
| 2026-04-27 19:18 | -3.71661 | -41.09036 | 29948 ft | 241 kts | 271° |
| 2026-04-27 19:18 | -3.71620 | -41.10714 | 29947 ft | 241 kts | 271° |
| 2026-04-27 19:19 | -3.71580 | -41.12390 | 29949 ft | 241 kts | 271° |
| 2026-04-27 19:19 | -3.71539 | -41.14067 | 29949 ft | 240 kts | 271° |
| 2026-04-27 19:19 | -3.71491 | -41.15737 | 29949 ft | 240 kts | 272° |
| 2026-04-27 19:19 | -3.71441 | -41.17413 | 29948 ft | 240 kts | 272° |
| 2026-04-27 19:20 | -3.71393 | -41.19087 | 29952 ft | 240 kts | 272° |
| 2026-04-27 19:20 | -3.71346 | -41.20759 | 29951 ft | 240 kts | 272° |
| 2026-04-27 19:20 | -3.71299 | -41.22413 | 29951 ft | 240 kts | 272° |
| 2026-04-27 19:20 | -3.71251 | -41.24084 | 29951 ft | 240 kts | 272° |
| 2026-04-27 19:21 | -3.71203 | -41.25763 | 29947 ft | 240 kts | 272° |
| 2026-04-27 19:21 | -3.71156 | -41.27435 | 29945 ft | 240 kts | 272° |
| 2026-04-27 19:21 | -3.71108 | -41.29107 | 29944 ft | 240 kts | 272° |
| 2026-04-27 19:21 | -3.71060 | -41.30781 | 29945 ft | 240 kts | 272° |
| 2026-04-27 19:22 | -3.71012 | -41.32451 | 29945 ft | 240 kts | 272° |
| 2026-04-27 19:22 | -3.70965 | -41.34122 | 29944 ft | 240 kts | 272° |
| 2026-04-27 19:22 | -3.70917 | -41.35795 | 29945 ft | 241 kts | 271° |
| 2026-04-27 19:22 | -3.70868 | -41.37474 | 29942 ft | 241 kts | 271° |
| 2026-04-27 19:23 | -3.70822 | -41.39135 | 29943 ft | 241 kts | 271° |
| 2026-04-27 19:23 | -3.70774 | -41.40818 | 29943 ft | 241 kts | 271° |
| 2026-04-27 19:23 | -3.70725 | -41.42497 | 29944 ft | 241 kts | 271° |
| 2026-04-27 19:23 | -3.70677 | -41.44174 | 29938 ft | 241 kts | 271° |
| 2026-04-27 19:24 | -3.70628 | -41.45850 | 29937 ft | 241 kts | 271° |
| 2026-04-27 19:24 | -3.70580 | -41.47528 | 29937 ft | 241 kts | 271° |
| 2026-04-27 19:24 | -3.70532 | -41.49204 | 29937 ft | 241 kts | 271° |
| 2026-04-27 19:24 | -3.70484 | -41.50861 | 29937 ft | 241 kts | 271° |
| 2026-04-27 19:25 | -3.70436 | -41.52536 | 29934 ft | 241 kts | 271° |
| 2026-04-27 19:25 | -3.70387 | -41.54215 | 29934 ft | 241 kts | 271° |
| 2026-04-27 19:25 | -3.70339 | -41.55891 | 29934 ft | 241 kts | 271° |
| 2026-04-27 19:25 | -3.70290 | -41.57561 | 29938 ft | 240 kts | 270° |
| 2026-04-27 19:26 | -3.70241 | -41.59228 | 29941 ft | 240 kts | 269° |
| 2026-04-27 19:26 | -3.70196 | -41.60898 | 29942 ft | 240 kts | 270° |
| 2026-04-27 19:26 | -3.70147 | -41.62574 | 29941 ft | 241 kts | 270° |
| 2026-04-27 19:26 | -3.70097 | -41.64253 | 29939 ft | 241 kts | 270° |
| 2026-04-27 19:27 | -3.70048 | -41.65932 | 29942 ft | 241 kts | 270° |
| 2026-04-27 19:27 | -3.70000 | -41.67612 | 29940 ft | 242 kts | 270° |
| 2026-04-27 19:27 | -3.69951 | -41.69273 | 29935 ft | 241 kts | 270° |
| 2026-04-27 19:27 | -3.69902 | -41.70943 | 29930 ft | 239 kts | 270° |
| 2026-04-27 19:28 | -3.69855 | -41.72597 | 29930 ft | 237 kts | 270° |
| 2026-04-27 19:28 | -3.69807 | -41.74249 | 29925 ft | 237 kts | 270° |
| 2026-04-27 19:28 | -3.69759 | -41.75896 | 29922 ft | 236 kts | 270° |
| 2026-04-27 19:28 | -3.69711 | -41.77541 | 29920 ft | 236 kts | 270° |
| 2026-04-27 19:29 | -3.69662 | -41.79176 | 29920 ft | 233 kts | 269° |
| 2026-04-27 19:29 | -3.69617 | -41.80793 | 29916 ft | 232 kts | 269° |
| 2026-04-27 19:29 | -3.69569 | -41.82406 | 29920 ft | 233 kts | 269° |
| 2026-04-27 19:29 | -3.69527 | -41.84038 | 29924 ft | 236 kts | 269° |
| 2026-04-27 19:30 | -3.69475 | -41.85685 | 29930 ft | 238 kts | 270° |
| 2026-04-27 19:30 | -3.69425 | -41.87347 | 29938 ft | 239 kts | 269° |
| 2026-04-27 19:30 | -3.69376 | -41.89011 | 29936 ft | 238 kts | 269° |
| 2026-04-27 19:30 | -3.69327 | -41.90657 | 29929 ft | 235 kts | 269° |
| 2026-04-27 19:31 | -3.69281 | -41.92270 | 29927 ft | 234 kts | 269° |
| 2026-04-27 19:31 | -3.69233 | -41.93912 | 29920 ft | 233 kts | 269° |
| 2026-04-27 19:31 | -3.69186 | -41.95528 | 29920 ft | 232 kts | 269° |
| 2026-04-27 19:31 | -3.69139 | -41.97116 | 29922 ft | 232 kts | 269° |
| 2026-04-27 19:32 | -3.69092 | -41.98738 | 29927 ft | 234 kts | 269° |
| 2026-04-27 19:32 | -3.69044 | -42.00375 | 29936 ft | 236 kts | 269° |
| 2026-04-27 19:32 | -3.68995 | -42.02021 | 29937 ft | 237 kts | 269° |
| 2026-04-27 19:32 | -3.68947 | -42.03673 | 29939 ft | 237 kts | 269° |
| 2026-04-27 19:33 | -3.68897 | -42.05319 | 29929 ft | 235 kts | 269° |
| 2026-04-27 19:33 | -3.68866 | -42.06399 | 29926 ft | 234 kts | 269° |
| 2026-04-27 19:33 | -3.68806 | -42.08569 | 29918 ft | 232 kts | 268° |
| 2026-04-27 19:33 | -3.68810 | -42.10184 | 29916 ft | 231 kts | 268° |
| 2026-04-27 19:34 | -3.68788 | -42.11786 | 29920 ft | 230 kts | 268° |
| 2026-04-27 19:34 | -3.68772 | -42.13390 | 29923 ft | 230 kts | 268° |
| 2026-04-27 19:34 | -3.68762 | -42.14992 | 29920 ft | 230 kts | 268° |
| 2026-04-27 19:34 | -3.68752 | -42.16578 | 29919 ft | 230 kts | 268° |
| 2026-04-27 19:35 | -3.68742 | -42.18178 | 29925 ft | 231 kts | 268° |
| 2026-04-27 19:35 | -3.68731 | -42.19797 | 29932 ft | 234 kts | 268° |
| 2026-04-27 19:35 | -3.68719 | -42.21427 | 29939 ft | 235 kts | 268° |
| 2026-04-27 19:35 | -3.68708 | -42.23063 | 29938 ft | 236 kts | 268° |
| 2026-04-27 19:36 | -3.68696 | -42.24699 | 29935 ft | 234 kts | 268° |
| 2026-04-27 19:36 | -3.68685 | -42.26321 | 29930 ft | 231 kts | 268° |
| 2026-04-27 19:36 | -3.68674 | -42.27927 | 29924 ft | 230 kts | 268° |
| 2026-04-27 19:36 | -3.68663 | -42.29527 | 29922 ft | 229 kts | 268° |
| 2026-04-27 19:37 | -3.68652 | -42.31117 | 29924 ft | 228 kts | 268° |
| 2026-04-27 19:37 | -3.68642 | -42.32711 | 29924 ft | 230 kts | 268° |
| 2026-04-27 19:37 | -3.68631 | -42.34322 | 29930 ft | 232 kts | 268° |
| 2026-04-27 19:37 | -3.68619 | -42.35947 | 29935 ft | 233 kts | 268° |
| 2026-04-27 19:38 | -3.68583 | -42.37553 | 29939 ft | 234 kts | 270° |
| 2026-04-27 19:38 | -3.68534 | -42.39183 | 29940 ft | 234 kts | 269° |
| 2026-04-27 19:38 | -3.68502 | -42.40818 | 29943 ft | 235 kts | 270° |
| 2026-04-27 19:38 | -3.68461 | -42.42450 | 29939 ft | 234 kts | 270° |
| 2026-04-27 19:39 | -3.68411 | -42.44078 | 29939 ft | 234 kts | 270° |
| 2026-04-27 19:39 | -3.68361 | -42.45701 | 29936 ft | 233 kts | 270° |
| 2026-04-27 19:39 | -3.68325 | -42.47331 | 29936 ft | 234 kts | 270° |
| 2026-04-27 19:39 | -3.68281 | -42.48962 | 29938 ft | 234 kts | 270° |
| 2026-04-27 19:40 | -3.68233 | -42.50594 | 29939 ft | 234 kts | 270° |
| 2026-04-27 19:40 | -3.68186 | -42.52226 | 29939 ft | 235 kts | 270° |
| 2026-04-27 19:40 | -3.68141 | -42.53842 | 29940 ft | 235 kts | 270° |
| 2026-04-27 19:40 | -3.68096 | -42.55475 | 29941 ft | 235 kts | 270° |
| 2026-04-27 19:41 | -3.68051 | -42.57112 | 29941 ft | 235 kts | 270° |
| 2026-04-27 19:41 | -3.68005 | -42.58747 | 29941 ft | 235 kts | 270° |
| 2026-04-27 19:41 | -3.67960 | -42.60380 | 29941 ft | 235 kts | 270° |
| 2026-04-27 19:41 | -3.67913 | -42.62016 | 29942 ft | 235 kts | 270° |
| 2026-04-27 19:42 | -3.67868 | -42.63649 | 29937 ft | 234 kts | 270° |
| 2026-04-27 19:42 | -3.67825 | -42.65275 | 29934 ft | 233 kts | 270° |
| 2026-04-27 19:42 | -3.67781 | -42.66902 | 29934 ft | 234 kts | 270° |
| 2026-04-27 19:42 | -3.67734 | -42.68532 | 29935 ft | 234 kts | 270° |
| 2026-04-27 19:43 | -3.67687 | -42.70161 | 29935 ft | 234 kts | 270° |
| 2026-04-27 19:43 | -3.67642 | -42.71769 | 29935 ft | 234 kts | 270° |
| 2026-04-27 19:43 | -3.67596 | -42.73400 | 29936 ft | 234 kts | 270° |
| 2026-04-27 19:43 | -3.67551 | -42.75032 | 29937 ft | 234 kts | 270° |
| 2026-04-27 19:44 | -3.67505 | -42.76669 | 29938 ft | 235 kts | 270° |
| 2026-04-27 19:44 | -3.67459 | -42.78308 | 29938 ft | 235 kts | 270° |
| 2026-04-27 19:44 | -3.67413 | -42.79941 | 29938 ft | 235 kts | 270° |
| 2026-04-27 19:44 | -3.67367 | -42.81574 | 29938 ft | 235 kts | 270° |
| 2026-04-27 19:45 | -3.67320 | -42.83204 | 29933 ft | 234 kts | 271° |
| 2026-04-27 19:45 | -3.67273 | -42.84829 | 29931 ft | 233 kts | 271° |
| 2026-04-27 19:45 | -3.67233 | -42.86451 | 29928 ft | 233 kts | 270° |
| 2026-04-27 19:45 | -3.67190 | -42.88057 | 29928 ft | 233 kts | 271° |
| 2026-04-27 19:46 | -3.67142 | -42.89680 | 29929 ft | 233 kts | 271° |
| 2026-04-27 19:46 | -3.67094 | -42.91304 | 29929 ft | 234 kts | 271° |
| 2026-04-27 19:46 | -3.67048 | -42.92933 | 29929 ft | 234 kts | 271° |
| 2026-04-27 19:46 | -3.67002 | -42.94562 | 29930 ft | 234 kts | 271° |
| 2026-04-27 19:47 | -3.66956 | -42.96188 | 29936 ft | 234 kts | 271° |
| 2026-04-27 19:47 | -3.66910 | -42.97818 | 29937 ft | 234 kts | 271° |
| 2026-04-27 19:47 | -3.66864 | -42.99449 | 29936 ft | 234 kts | 271° |
| 2026-04-27 19:47 | -3.66819 | -43.01056 | 29937 ft | 234 kts | 271° |
| 2026-04-27 19:48 | -3.66772 | -43.02682 | 29937 ft | 234 kts | 271° |
| 2026-04-27 19:48 | -3.66726 | -43.04309 | 29932 ft | 234 kts | 271° |
| 2026-04-27 19:48 | -3.66680 | -43.05940 | 29930 ft | 233 kts | 271° |
| 2026-04-27 19:48 | -3.66634 | -43.07564 | 29929 ft | 233 kts | 271° |
| 2026-04-27 19:49 | -3.66588 | -43.09189 | 29932 ft | 233 kts | 271° |
| 2026-04-27 19:49 | -3.66542 | -43.10814 | 29932 ft | 233 kts | 271° |
| 2026-04-27 19:49 | -3.66496 | -43.12436 | 29931 ft | 233 kts | 271° |
| 2026-04-27 19:49 | -3.66450 | -43.14061 | 29932 ft | 233 kts | 271° |
| 2026-04-27 19:50 | -3.66404 | -43.15686 | 29933 ft | 234 kts | 271° |
| 2026-04-27 19:50 | -3.66357 | -43.17314 | 29935 ft | 234 kts | 271° |
| 2026-04-27 19:50 | -3.66311 | -43.18942 | 29936 ft | 234 kts | 271° |
| 2026-04-27 19:50 | -3.66264 | -43.20574 | 29935 ft | 234 kts | 271° |
| 2026-04-27 19:51 | -3.66218 | -43.22203 | 29935 ft | 234 kts | 271° |
| 2026-04-27 19:51 | -3.66172 | -43.23807 | 29934 ft | 234 kts | 271° |
| 2026-04-27 19:51 | -3.66126 | -43.25433 | 29933 ft | 233 kts | 271° |
| 2026-04-27 19:51 | -3.66079 | -43.27055 | 29933 ft | 233 kts | 271° |
| 2026-04-27 19:52 | -3.66033 | -43.28680 | 29933 ft | 233 kts | 271° |
| 2026-04-27 19:52 | -3.66002 | -43.29779 | 29933 ft | 233 kts | 271° |
| 2026-04-27 19:52 | -3.65940 | -43.31932 | 29934 ft | 234 kts | 271° |
| 2026-04-27 19:52 | -3.65893 | -43.33557 | 29934 ft | 234 kts | 271° |
| 2026-04-27 19:53 | -3.65816 | -43.36259 | 29930 ft | 234 kts | 271° |
| 2026-04-27 19:53 | -3.65769 | -43.37887 | 29930 ft | 233 kts | 271° |
| 2026-04-27 19:53 | -3.65722 | -43.39512 | 29930 ft | 233 kts | 271° |
| 2026-04-27 19:54 | -3.65676 | -43.41137 | 29931 ft | 233 kts | 271° |
| 2026-04-27 19:54 | -3.65629 | -43.42761 | 29932 ft | 234 kts | 271° |
| 2026-04-27 19:54 | -3.65582 | -43.44388 | 29928 ft | 233 kts | 271° |
| 2026-04-27 19:54 | -3.65536 | -43.46009 | 29930 ft | 233 kts | 271° |
| 2026-04-27 19:55 | -3.65493 | -43.47632 | 29933 ft | 233 kts | 271° |
| 2026-04-27 19:55 | -3.65445 | -43.49261 | 29936 ft | 235 kts | 271° |
| 2026-04-27 19:55 | -3.65394 | -43.50894 | 29939 ft | 235 kts | 271° |
| 2026-04-27 19:55 | -3.65348 | -43.52513 | 29943 ft | 236 kts | 271° |
| 2026-04-27 19:56 | -3.65301 | -43.54156 | 29945 ft | 236 kts | 271° |
| 2026-04-27 19:56 | -3.65254 | -43.55803 | 29947 ft | 237 kts | 271° |
| 2026-04-27 19:56 | -3.65206 | -43.57450 | 29944 ft | 237 kts | 271° |
| 2026-04-27 19:56 | -3.65158 | -43.59100 | 29945 ft | 237 kts | 271° |
| 2026-04-27 19:57 | -3.65110 | -43.60751 | 29946 ft | 237 kts | 271° |
| 2026-04-27 19:57 | -3.65063 | -43.62404 | 29946 ft | 237 kts | 271° |
| 2026-04-27 19:57 | -3.65014 | -43.64057 | 29945 ft | 237 kts | 271° |
| 2026-04-27 19:57 | -3.64966 | -43.65713 | 29944 ft | 237 kts | 271° |
| 2026-04-27 19:58 | -3.64918 | -43.67368 | 29941 ft | 237 kts | 271° |
| 2026-04-27 19:58 | -3.64869 | -43.69021 | 29942 ft | 238 kts | 271° |
| 2026-04-27 19:58 | -3.64822 | -43.70654 | 29942 ft | 238 kts | 271° |
| 2026-04-27 19:58 | -3.64773 | -43.72311 | 29942 ft | 238 kts | 271° |
| 2026-04-27 19:59 | -3.64725 | -43.73967 | 29943 ft | 238 kts | 271° |
| 2026-04-27 19:59 | -3.64676 | -43.75621 | 29943 ft | 238 kts | 271° |
| 2026-04-27 19:59 | -3.64628 | -43.77278 | 29943 ft | 238 kts | 271° |
| 2026-04-27 19:59 | -3.64579 | -43.78934 | 29944 ft | 238 kts | 271° |
| 2026-04-27 20:00 | -3.64531 | -43.80589 | 29943 ft | 238 kts | 271° |
| 2026-04-27 20:00 | -3.64484 | -43.82238 | 29940 ft | 236 kts | 271° |
| 2026-04-27 20:00 | -3.64435 | -43.83883 | 29937 ft | 236 kts | 272° |
| 2026-04-27 20:00 | -3.64384 | -43.85527 | 29936 ft | 237 kts | 272° |
| 2026-04-27 20:01 | -3.64336 | -43.87175 | 29937 ft | 237 kts | 272° |
| 2026-04-27 20:01 | -3.64289 | -43.88806 | 29938 ft | 237 kts | 271° |
| 2026-04-27 20:01 | -3.64240 | -43.90457 | 29939 ft | 237 kts | 272° |
| 2026-04-27 20:01 | -3.64191 | -43.92109 | 29938 ft | 237 kts | 271° |
| 2026-04-27 20:02 | -3.64143 | -43.93757 | 29942 ft | 237 kts | 272° |
| 2026-04-27 20:02 | -3.64094 | -43.95406 | 29941 ft | 237 kts | 272° |
| 2026-04-27 20:02 | -3.64045 | -43.97055 | 29942 ft | 237 kts | 272° |
| 2026-04-27 20:02 | -3.63997 | -43.98704 | 29941 ft | 237 kts | 272° |
| 2026-04-27 20:03 | -3.63948 | -44.00356 | 29939 ft | 237 kts | 272° |
| 2026-04-27 20:03 | -3.63899 | -44.02006 | 29939 ft | 237 kts | 271° |
| 2026-04-27 20:03 | -3.63850 | -44.03657 | 29939 ft | 237 kts | 272° |
| 2026-04-27 20:03 | -3.63801 | -44.05309 | 29940 ft | 237 kts | 272° |
| 2026-04-27 20:04 | -3.63752 | -44.06966 | 29944 ft | 238 kts | 272° |
| 2026-04-27 20:04 | -3.63703 | -44.08628 | 29947 ft | 239 kts | 272° |
| 2026-04-27 20:04 | -3.63654 | -44.10277 | 29950 ft | 240 kts | 272° |
| 2026-04-27 20:04 | -3.63604 | -44.11953 | 29949 ft | 241 kts | 272° |
| 2026-04-27 20:05 | -3.63554 | -44.13634 | 29948 ft | 242 kts | 272° |
| 2026-04-27 20:05 | -3.63504 | -44.15318 | 29950 ft | 242 kts | 272° |
| 2026-04-27 20:05 | -3.63453 | -44.17007 | 29949 ft | 243 kts | 272° |
| 2026-04-27 20:05 | -3.63403 | -44.18698 | 29948 ft | 243 kts | 272° |
| 2026-04-27 20:06 | -3.63353 | -44.20389 | 29946 ft | 243 kts | 272° |
| 2026-04-27 20:06 | -3.63302 | -44.22080 | 29948 ft | 243 kts | 272° |
| 2026-04-27 20:06 | -3.63248 | -44.23776 | 29946 ft | 243 kts | 273° |
| 2026-04-27 20:06 | -3.63166 | -44.25468 | 29947 ft | 243 kts | 274° |
| 2026-04-27 20:07 | -3.63081 | -44.27159 | 29950 ft | 243 kts | 273° |
| 2026-04-27 20:07 | -3.63002 | -44.28853 | 29950 ft | 243 kts | 273° |
| 2026-04-27 20:07 | -3.62926 | -44.30547 | 29950 ft | 243 kts | 273° |
| 2026-04-27 20:07 | -3.62850 | -44.32217 | 29950 ft | 243 kts | 273° |
| 2026-04-27 20:08 | -3.62772 | -44.33912 | 29950 ft | 243 kts | 273° |
| 2026-04-27 20:08 | -3.62694 | -44.35605 | 29950 ft | 243 kts | 273° |
| 2026-04-27 20:08 | -3.62616 | -44.37298 | 29950 ft | 243 kts | 273° |
| 2026-04-27 20:08 | -3.62538 | -44.38994 | 29950 ft | 243 kts | 273° |
| 2026-04-27 20:09 | -3.62460 | -44.40685 | 29947 ft | 243 kts | 273° |
| 2026-04-27 20:09 | -3.62382 | -44.42380 | 29952 ft | 243 kts | 273° |
| 2026-04-27 20:09 | -3.62305 | -44.44058 | 29947 ft | 244 kts | 273° |
| 2026-04-27 20:09 | -3.62226 | -44.45753 | 29948 ft | 244 kts | 273° |
| 2026-04-27 20:10 | -3.62149 | -44.47445 | 29946 ft | 244 kts | 273° |
| 2026-04-27 20:10 | -3.62070 | -44.49148 | 29946 ft | 244 kts | 273° |
| 2026-04-27 20:10 | -3.61992 | -44.50844 | 29946 ft | 244 kts | 273° |
| 2026-04-27 20:10 | -3.61914 | -44.52540 | 29946 ft | 244 kts | 273° |
| 2026-04-27 20:11 | -3.61853 | -44.54238 | 29946 ft | 244 kts | 272° |
| 2026-04-27 20:11 | -3.61810 | -44.55936 | 29947 ft | 244 kts | 272° |
| 2026-04-27 20:11 | -3.61763 | -44.57616 | 29947 ft | 244 kts | 272° |
| 2026-04-27 20:11 | -3.61710 | -44.59313 | 29947 ft | 244 kts | 272° |
| 2026-04-27 20:12 | -3.61657 | -44.61017 | 29948 ft | 244 kts | 272° |
| 2026-04-27 20:12 | -3.61605 | -44.62717 | 29949 ft | 244 kts | 272° |
| 2026-04-27 20:12 | -3.61554 | -44.64421 | 29950 ft | 244 kts | 272° |
| 2026-04-27 20:12 | -3.61503 | -44.66098 | 29950 ft | 244 kts | 272° |
| 2026-04-27 20:13 | -3.61451 | -44.67803 | 29944 ft | 244 kts | 272° |
| 2026-04-27 20:13 | -3.61398 | -44.69504 | 29944 ft | 244 kts | 272° |
| 2026-04-27 20:13 | -3.61343 | -44.71198 | 29944 ft | 244 kts | 272° |
| 2026-04-27 20:13 | -3.61288 | -44.72891 | 29943 ft | 243 kts | 272° |
| 2026-04-27 20:14 | -3.61234 | -44.74589 | 29943 ft | 243 kts | 272° |
| 2026-04-27 20:14 | -3.61180 | -44.76284 | 29944 ft | 244 kts | 272° |
| 2026-04-27 20:14 | -3.61125 | -44.77977 | 29943 ft | 244 kts | 272° |
| 2026-04-27 20:14 | -3.61070 | -44.79671 | 29943 ft | 243 kts | 272° |
| 2026-04-27 20:15 | -3.61017 | -44.81342 | 29940 ft | 243 kts | 272° |
| 2026-04-27 20:15 | -3.60963 | -44.83030 | 29941 ft | 243 kts | 272° |
| 2026-04-27 20:15 | -3.60908 | -44.84721 | 29939 ft | 242 kts | 272° |
| 2026-04-27 20:15 | -3.60854 | -44.86407 | 29940 ft | 242 kts | 272° |
| 2026-04-27 20:16 | -3.60800 | -44.88089 | 29942 ft | 242 kts | 272° |
| 2026-04-27 20:16 | -3.60746 | -44.89768 | 29918 ft | 237 kts | 272° |
| 2026-04-27 20:16 | -3.60690 | -44.91420 | 29414 ft | 239 kts | 272° |
| 2026-04-27 20:16 | -3.60636 | -44.93086 | 28899 ft | 240 kts | 272° |
| 2026-04-27 20:17 | -3.60583 | -44.94750 | 28379 ft | 239 kts | 272° |
| 2026-04-27 20:17 | -3.60529 | -44.96413 | 27837 ft | 239 kts | 272° |
| 2026-04-27 20:17 | -3.60476 | -44.98079 | 27328 ft | 239 kts | 272° |
| 2026-04-27 20:17 | -3.60440 | -44.99182 | 27033 ft | 238 kts | 272° |
| 2026-04-27 20:18 | -3.60369 | -45.01380 | 26445 ft | 235 kts | 272° |
| 2026-04-27 20:18 | -3.60317 | -45.03007 | 26019 ft | 233 kts | 272° |
| 2026-04-27 20:18 | -3.60264 | -45.04622 | 25596 ft | 231 kts | 272° |
| 2026-04-27 20:18 | -3.60212 | -45.06222 | 25183 ft | 228 kts | 272° |
| 2026-04-27 20:19 | -3.60160 | -45.07860 | 24948 ft | 231 kts | 272° |
| 2026-04-27 20:19 | -3.60110 | -45.09429 | 24932 ft | 224 kts | 272° |
| 2026-04-27 20:19 | -3.60063 | -45.10940 | 24646 ft | 219 kts | 272° |
| 2026-04-27 20:19 | -3.60013 | -45.12475 | 24207 ft | 221 kts | 272° |
| 2026-04-27 20:20 | -3.59967 | -45.14002 | 23833 ft | 218 kts | 272° |
| 2026-04-27 20:20 | -3.59920 | -45.15514 | 23437 ft | 216 kts | 272° |
| 2026-04-27 20:20 | -3.59874 | -45.17014 | 22977 ft | 215 kts | 272° |
| 2026-04-27 20:20 | -3.59828 | -45.18503 | 22531 ft | 213 kts | 272° |
| 2026-04-27 20:21 | -3.59783 | -45.19978 | 22097 ft | 211 kts | 272° |
| 2026-04-27 20:21 | -3.59737 | -45.21444 | 21666 ft | 210 kts | 272° |
| 2026-04-27 20:21 | -3.59692 | -45.22902 | 21244 ft | 208 kts | 271° |
| 2026-04-27 20:21 | -3.59648 | -45.24348 | 20828 ft | 207 kts | 271° |
| 2026-04-27 20:22 | -3.59603 | -45.25784 | 20419 ft | 206 kts | 271° |
| 2026-04-27 20:22 | -3.59559 | -45.27210 | 20054 ft | 206 kts | 271° |
| 2026-04-27 20:22 | -3.59515 | -45.28645 | 19940 ft | 201 kts | 271° |
| 2026-04-27 20:22 | -3.59474 | -45.30043 | 19939 ft | 202 kts | 271° |
| 2026-04-27 20:23 | -3.59430 | -45.31462 | 19950 ft | 208 kts | 271° |
| 2026-04-27 20:23 | -3.59384 | -45.32987 | 19957 ft | 231 kts | 271° |
| 2026-04-27 20:23 | -3.59331 | -45.34638 | 19958 ft | 247 kts | 271° |
| 2026-04-27 20:23 | -3.59276 | -45.36393 | 19954 ft | 256 kts | 271° |
| 2026-04-27 20:24 | -3.59220 | -45.38181 | 19950 ft | 259 kts | 271° |
| 2026-04-27 20:24 | -3.59163 | -45.40008 | 19946 ft | 264 kts | 271° |
| 2026-04-27 20:24 | -3.59105 | -45.41855 | 19946 ft | 267 kts | 271° |
| 2026-04-27 20:24 | -3.59048 | -45.43718 | 19948 ft | 268 kts | 271° |
| 2026-04-27 20:25 | -3.58989 | -45.45585 | 19950 ft | 269 kts | 271° |
| 2026-04-27 20:25 | -3.58931 | -45.47458 | 19948 ft | 269 kts | 271° |
| 2026-04-27 20:25 | -3.58872 | -45.49330 | 19946 ft | 269 kts | 271° |
| 2026-04-27 20:25 | -3.58814 | -45.51200 | 19947 ft | 269 kts | 271° |
| 2026-04-27 20:26 | -3.58755 | -45.53075 | 19944 ft | 269 kts | 271° |
| 2026-04-27 20:26 | -3.58697 | -45.54923 | 19945 ft | 269 kts | 271° |
| 2026-04-27 20:26 | -3.58639 | -45.56799 | 19945 ft | 269 kts | 271° |
| 2026-04-27 20:26 | -3.58580 | -45.58672 | 19944 ft | 269 kts | 271° |
| 2026-04-27 20:27 | -3.58521 | -45.60548 | 19944 ft | 270 kts | 271° |
| 2026-04-27 20:27 | -3.58462 | -45.62428 | 19944 ft | 270 kts | 271° |
| 2026-04-27 20:27 | -3.58403 | -45.64305 | 19944 ft | 270 kts | 271° |
| 2026-04-27 20:27 | -3.58344 | -45.66184 | 19945 ft | 270 kts | 271° |
| 2026-04-27 20:28 | -3.58286 | -45.68040 | 19942 ft | 270 kts | 271° |
| 2026-04-27 20:28 | -3.58227 | -45.69918 | 19942 ft | 270 kts | 271° |
| 2026-04-27 20:28 | -3.58168 | -45.71798 | 19942 ft | 270 kts | 271° |
| 2026-04-27 20:28 | -3.58128 | -45.73065 | 19942 ft | 270 kts | 271° |
| 2026-04-27 20:29 | -3.58050 | -45.75549 | 19944 ft | 270 kts | 271° |
| 2026-04-27 20:29 | -3.57990 | -45.77424 | 19945 ft | 270 kts | 271° |
| 2026-04-27 20:29 | -3.57931 | -45.79304 | 19944 ft | 270 kts | 271° |
| 2026-04-27 20:29 | -3.57872 | -45.81191 | 19944 ft | 270 kts | 271° |
| 2026-04-27 20:30 | -3.57812 | -45.83067 | 19945 ft | 270 kts | 271° |
| 2026-04-27 20:30 | -3.57753 | -45.84951 | 19945 ft | 270 kts | 271° |
| 2026-04-27 20:30 | -3.57694 | -45.86830 | 19945 ft | 270 kts | 271° |
| 2026-04-27 20:30 | -3.57634 | -45.88707 | 19945 ft | 270 kts | 271° |
| 2026-04-27 20:31 | -3.57575 | -45.90565 | 19947 ft | 270 kts | 271° |
| 2026-04-27 20:31 | -3.57515 | -45.92446 | 19947 ft | 270 kts | 271° |
| 2026-04-27 20:31 | -3.57456 | -45.94325 | 19948 ft | 270 kts | 271° |
| 2026-04-27 20:31 | -3.57396 | -45.96205 | 19948 ft | 270 kts | 271° |
| 2026-04-27 20:32 | -3.57336 | -45.98090 | 19945 ft | 270 kts | 271° |
| 2026-04-27 20:32 | -3.57277 | -45.99978 | 19945 ft | 271 kts | 271° |
| 2026-04-27 20:32 | -3.57217 | -46.01862 | 19947 ft | 271 kts | 271° |
| 2026-04-27 20:32 | -3.57156 | -46.03747 | 19947 ft | 271 kts | 271° |
| 2026-04-27 20:33 | -3.57097 | -46.05633 | 19947 ft | 271 kts | 271° |
| 2026-04-27 20:33 | -3.57037 | -46.07514 | 19950 ft | 271 kts | 271° |
| 2026-04-27 20:33 | -3.56977 | -46.09399 | 19950 ft | 271 kts | 271° |
| 2026-04-27 20:33 | -3.56917 | -46.11281 | 19949 ft | 271 kts | 271° |
| 2026-04-27 20:34 | -3.56856 | -46.13170 | 19944 ft | 271 kts | 271° |
| 2026-04-27 20:34 | -3.56797 | -46.15031 | 19944 ft | 271 kts | 271° |
| 2026-04-27 20:34 | -3.56737 | -46.16913 | 19944 ft | 271 kts | 271° |
| 2026-04-27 20:34 | -3.56676 | -46.18797 | 19942 ft | 271 kts | 271° |
| 2026-04-27 20:35 | -3.56616 | -46.20682 | 19947 ft | 271 kts | 271° |
| 2026-04-27 20:35 | -3.56556 | -46.22571 | 19947 ft | 271 kts | 271° |
| 2026-04-27 20:35 | -3.56495 | -46.24456 | 19946 ft | 271 kts | 271° |
| 2026-04-27 20:35 | -3.56435 | -46.26340 | 19947 ft | 271 kts | 271° |
| 2026-04-27 20:36 | -3.56375 | -46.28227 | 19946 ft | 271 kts | 271° |
| 2026-04-27 20:36 | -3.56314 | -46.30116 | 19946 ft | 271 kts | 271° |
| 2026-04-27 20:36 | -3.56253 | -46.32006 | 19946 ft | 271 kts | 271° |
| 2026-04-27 20:36 | -3.56192 | -46.33894 | 19946 ft | 271 kts | 271° |
| 2026-04-27 20:37 | -3.56134 | -46.35729 | 19464 ft | 266 kts | 271° |
| 2026-04-27 20:37 | -3.56072 | -46.37597 | 18795 ft | 267 kts | 271° |
| 2026-04-27 20:37 | -3.56012 | -46.39445 | 18207 ft | 264 kts | 272° |
| 2026-04-27 20:37 | -3.55694 | -46.41242 | 17500 ft | 262 kts | 286° |
| 2026-04-27 20:38 | -3.55122 | -46.42988 | 16507 ft | 270 kts | 291° |
| 2026-04-27 20:38 | -3.54354 | -46.44708 | 15789 ft | 268 kts | 297° |
| 2026-04-27 20:38 | -3.53527 | -46.46346 | 15227 ft | 258 kts | 298° |
| 2026-04-27 20:38 | -3.52688 | -46.47973 | 14965 ft | 263 kts | 298° |
| 2026-04-27 20:39 | -3.51856 | -46.49584 | 14946 ft | 260 kts | 298° |
| 2026-04-27 20:39 | -3.51025 | -46.51196 | 14947 ft | 261 kts | 298° |
| 2026-04-27 20:39 | -3.50192 | -46.52813 | 14950 ft | 261 kts | 298° |
| 2026-04-27 20:39 | -3.49279 | -46.54384 | 14941 ft | 261 kts | 303° |
| 2026-04-27 20:40 | -3.48619 | -46.55391 | 14929 ft | 258 kts | 304° |
| 2026-04-27 20:40 | -3.47315 | -46.57340 | 13947 ft | 258 kts | 305° |
| 2026-04-27 20:40 | -3.46290 | -46.58786 | 13306 ft | 251 kts | 309° |
| 2026-04-27 20:40 | -3.45177 | -46.60124 | 12591 ft | 249 kts | 311° |
| 2026-04-27 20:41 | -3.44049 | -46.61429 | 11914 ft | 246 kts | 312° |
| 2026-04-27 20:41 | -3.42928 | -46.62716 | 11242 ft | 244 kts | 312° |
| 2026-04-27 20:41 | -3.42177 | -46.63575 | 10805 ft | 242 kts | 312° |
| 2026-04-27 20:41 | -3.41034 | -46.64776 | 10167 ft | 240 kts | 316° |
| 2026-04-27 20:42 | -3.39842 | -46.65941 | 9508 ft | 238 kts | 317° |
| 2026-04-27 20:42 | -3.38661 | -46.67087 | 8842 ft | 235 kts | 317° |
| 2026-04-27 20:42 | -3.37427 | -46.68144 | 8172 ft | 232 kts | 327° |
| 2026-04-27 20:42 | -3.36051 | -46.68967 | 7526 ft | 229 kts | 336° |
| 2026-04-27 20:43 | -3.34601 | -46.69599 | 6896 ft | 226 kts | 340° |
| 2026-04-27 20:43 | -3.33140 | -46.70160 | 6287 ft | 224 kts | 346° |
| 2026-04-27 20:43 | -3.31642 | -46.70519 | 5725 ft | 217 kts | 348° |
| 2026-04-27 20:43 | -3.30436 | -46.71315 | 5362 ft | 207 kts | 304° |
| 2026-04-27 20:44 | -3.30110 | -46.72613 | 5270 ft | 182 kts | 271° |
| 2026-04-27 20:44 | -3.30256 | -46.73779 | 5034 ft | 162 kts | 251° |
| 2026-04-27 20:44 | -3.30917 | -46.74691 | 4387 ft | 165 kts | 210° |
| 2026-04-27 20:44 | -3.31792 | -46.75437 | 3935 ft | 156 kts | 214° |
| 2026-04-27 20:45 | -3.32444 | -46.76170 | 3644 ft | 141 kts | 249° |
| 2026-04-27 20:45 | -3.32666 | -46.77180 | 3134 ft | 149 kts | 259° |
| 2026-04-27 20:45 | -3.33054 | -46.78031 | 2672 ft | 130 kts | 217° |
| 2026-04-27 20:45 | -3.33826 | -46.78215 | 2157 ft | 110 kts | 160° |
| 2026-04-27 20:46 | -3.34327 | -46.77664 | 1723 ft | 112 kts | 102° |
| 2026-04-27 20:46 | -3.34374 | -46.76916 | 1504 ft | 108 kts | 82° |
| 2026-04-27 20:46 | -3.34215 | -46.76208 | 1284 ft | 102 kts | 58° |
| 2026-04-27 20:46 | -3.33744 | -46.75676 | 1228 ft | 102 kts | 38° |
| 2026-04-27 20:47 | -3.33048 | -46.75666 | 1049 ft | 108 kts | 326° |
| 2026-04-27 20:47 | -3.32681 | -46.76310 | 755 ft | 109 kts | 272° |
| 2026-04-27 20:47 | -3.32702 | -46.77054 | 549 ft | 105 kts | 264° |
| 2026-04-27 20:47 | -3.32759 | -46.77771 | 317 ft | 96 kts | 262° |
| 2026-04-27 20:48 | -3.32817 | -46.78213 | 306 ft | 33 kts | 262° |
| 2026-04-27 20:48 | -3.32848 | -46.78350 | 306 ft | 12 kts | 265° |
| 2026-04-27 20:48 | -3.32826 | -46.78349 | 306 ft | 0 kts | 75° |